<?xml version="1.0" encoding="UTF-8" standalone="no" ?>
<gpx xmlns="http://www.topografix.com/GPX/1/1" xmlns:xsi="http://www.w3.org/2001/XMLSchema-instance" xsi:schemaLocation="http://www.topografix.com/GPX/1/1 http://www.topografix.com/GPX/1/1/gpx.xsd" version="1.1" creator="VisuGPX - https://www.visugpx.com">
  <metadata>
    <name>sortie cyclo du 29/03/2011</name>
    <desc><![CDATA[Agréable sortie de ce début de printemps]]></desc>
  </metadata>
  <trk>
    <name><![CDATA[rye]]></name>
    <trkseg>
      <trkpt lat="47.07352" lon="5.49337">
        <ele>197.688232</ele>
        <time>2011-03-29T13:46:13Z</time>
      </trkpt>
      <trkpt lat="47.07325" lon="5.49303">
        <ele>201.533569</ele>
        <time>2011-03-29T13:46:23Z</time>
      </trkpt>
      <trkpt lat="47.07306" lon="5.4928">
        <ele>204.898071</ele>
        <time>2011-03-29T13:46:29Z</time>
      </trkpt>
      <trkpt lat="47.07302" lon="5.49275">
        <ele>204.898071</ele>
        <time>2011-03-29T13:46:30Z</time>
      </trkpt>
      <trkpt lat="47.07291" lon="5.49262">
        <ele>206.340088</ele>
        <time>2011-03-29T13:46:33Z</time>
      </trkpt>
      <trkpt lat="47.0726" lon="5.49221">
        <ele>209.224121</ele>
        <time>2011-03-29T13:46:42Z</time>
      </trkpt>
      <trkpt lat="47.07238" lon="5.49185">
        <ele>209.704834</ele>
        <time>2011-03-29T13:46:48Z</time>
      </trkpt>
      <trkpt lat="47.07216" lon="5.49118">
        <ele>210.185425</ele>
        <time>2011-03-29T13:46:58Z</time>
      </trkpt>
      <trkpt lat="47.07186" lon="5.49034">
        <ele>212.588623</ele>
        <time>2011-03-29T13:47:11Z</time>
      </trkpt>
      <trkpt lat="47.07119" lon="5.48915">
        <ele>212.108032</ele>
        <time>2011-03-29T13:47:29Z</time>
      </trkpt>
      <trkpt lat="47.07081" lon="5.48836">
        <ele>212.588623</ele>
        <time>2011-03-29T13:47:41Z</time>
      </trkpt>
      <trkpt lat="47.06997" lon="5.48749">
        <ele>212.108032</ele>
        <time>2011-03-29T13:48:00Z</time>
      </trkpt>
      <trkpt lat="47.06993" lon="5.48744">
        <ele>211.627441</ele>
        <time>2011-03-29T13:48:01Z</time>
      </trkpt>
      <trkpt lat="47.06979" lon="5.48718">
        <ele>210.185425</ele>
        <time>2011-03-29T13:48:05Z</time>
      </trkpt>
      <trkpt lat="47.06939" lon="5.48703">
        <ele>211.146729</ele>
        <time>2011-03-29T13:48:15Z</time>
      </trkpt>
      <trkpt lat="47.06931" lon="5.48702">
        <ele>211.146729</ele>
        <time>2011-03-29T13:48:17Z</time>
      </trkpt>
      <trkpt lat="47.0691" lon="5.48705">
        <ele>211.146729</ele>
        <time>2011-03-29T13:48:22Z</time>
      </trkpt>
      <trkpt lat="47.06901" lon="5.48708">
        <ele>211.627441</ele>
        <time>2011-03-29T13:48:24Z</time>
      </trkpt>
      <trkpt lat="47.06814" lon="5.48789">
        <ele>213.550049</ele>
        <time>2011-03-29T13:48:45Z</time>
      </trkpt>
      <trkpt lat="47.06763" lon="5.48839">
        <ele>213.069336</ele>
        <time>2011-03-29T13:48:57Z</time>
      </trkpt>
      <trkpt lat="47.06713" lon="5.48839">
        <ele>213.550049</ele>
        <time>2011-03-29T13:49:08Z</time>
      </trkpt>
      <trkpt lat="47.06658" lon="5.48754">
        <ele>209.704834</ele>
        <time>2011-03-29T13:49:21Z</time>
      </trkpt>
      <trkpt lat="47.06654" lon="5.48747">
        <ele>209.704834</ele>
        <time>2011-03-29T13:49:22Z</time>
      </trkpt>
      <trkpt lat="47.0664" lon="5.48689">
        <ele>209.224121</ele>
        <time>2011-03-29T13:49:29Z</time>
      </trkpt>
      <trkpt lat="47.06641" lon="5.48654">
        <ele>208.262817</ele>
        <time>2011-03-29T13:49:33Z</time>
      </trkpt>
      <trkpt lat="47.06659" lon="5.48581">
        <ele>209.224121</ele>
        <time>2011-03-29T13:49:43Z</time>
      </trkpt>
      <trkpt lat="47.06666" lon="5.4849">
        <ele>211.146729</ele>
        <time>2011-03-29T13:49:56Z</time>
      </trkpt>
      <trkpt lat="47.06643" lon="5.48449">
        <ele>210.666016</ele>
        <time>2011-03-29T13:50:04Z</time>
      </trkpt>
      <trkpt lat="47.06594" lon="5.48437">
        <ele>209.704834</ele>
        <time>2011-03-29T13:50:13Z</time>
      </trkpt>
      <trkpt lat="47.0657" lon="5.48399">
        <ele>208.743408</ele>
        <time>2011-03-29T13:50:19Z</time>
      </trkpt>
      <trkpt lat="47.06555" lon="5.48344">
        <ele>208.262817</ele>
        <time>2011-03-29T13:50:26Z</time>
      </trkpt>
      <trkpt lat="47.06529" lon="5.48301">
        <ele>208.743408</ele>
        <time>2011-03-29T13:50:33Z</time>
      </trkpt>
      <trkpt lat="47.06505" lon="5.48282">
        <ele>208.262817</ele>
        <time>2011-03-29T13:50:38Z</time>
      </trkpt>
      <trkpt lat="47.06422" lon="5.4826">
        <ele>207.782104</ele>
        <time>2011-03-29T13:50:53Z</time>
      </trkpt>
      <trkpt lat="47.06334" lon="5.48221">
        <ele>204.41748</ele>
        <time>2011-03-29T13:51:07Z</time>
      </trkpt>
      <trkpt lat="47.06318" lon="5.48217">
        <ele>202.975464</ele>
        <time>2011-03-29T13:51:09Z</time>
      </trkpt>
      <trkpt lat="47.06213" lon="5.48221">
        <ele>201.052856</ele>
        <time>2011-03-29T13:51:24Z</time>
      </trkpt>
      <trkpt lat="47.06168" lon="5.48244">
        <ele>200.091675</ele>
        <time>2011-03-29T13:51:32Z</time>
      </trkpt>
      <trkpt lat="47.06132" lon="5.48264">
        <ele>199.61084</ele>
        <time>2011-03-29T13:51:39Z</time>
      </trkpt>
      <trkpt lat="47.06116" lon="5.48274">
        <ele>199.130127</ele>
        <time>2011-03-29T13:51:42Z</time>
      </trkpt>
      <trkpt lat="47.05998" lon="5.48303">
        <ele>199.130127</ele>
        <time>2011-03-29T13:52:01Z</time>
      </trkpt>
      <trkpt lat="47.05888" lon="5.48342">
        <ele>198.649536</ele>
        <time>2011-03-29T13:52:20Z</time>
      </trkpt>
      <trkpt lat="47.05768" lon="5.48407">
        <ele>199.61084</ele>
        <time>2011-03-29T13:52:42Z</time>
      </trkpt>
      <trkpt lat="47.05737" lon="5.48385">
        <ele>199.130127</ele>
        <time>2011-03-29T13:52:48Z</time>
      </trkpt>
      <trkpt lat="47.05714" lon="5.4834">
        <ele>198.649536</ele>
        <time>2011-03-29T13:52:54Z</time>
      </trkpt>
      <trkpt lat="47.05691" lon="5.4831">
        <ele>198.649536</ele>
        <time>2011-03-29T13:52:59Z</time>
      </trkpt>
      <trkpt lat="47.05601" lon="5.4828">
        <ele>199.130127</ele>
        <time>2011-03-29T13:53:15Z</time>
      </trkpt>
      <trkpt lat="47.05512" lon="5.48306">
        <ele>198.649536</ele>
        <time>2011-03-29T13:53:31Z</time>
      </trkpt>
      <trkpt lat="47.05391" lon="5.48336">
        <ele>198.168945</ele>
        <time>2011-03-29T13:53:51Z</time>
      </trkpt>
      <trkpt lat="47.05289" lon="5.48298">
        <ele>198.168945</ele>
        <time>2011-03-29T13:54:08Z</time>
      </trkpt>
      <trkpt lat="47.05186" lon="5.48199">
        <ele>197.688232</ele>
        <time>2011-03-29T13:54:29Z</time>
      </trkpt>
      <trkpt lat="47.05104" lon="5.48047">
        <ele>198.168945</ele>
        <time>2011-03-29T13:54:52Z</time>
      </trkpt>
      <trkpt lat="47.05086" lon="5.47993">
        <ele>198.168945</ele>
        <time>2011-03-29T13:54:59Z</time>
      </trkpt>
      <trkpt lat="47.05065" lon="5.47962">
        <ele>198.168945</ele>
        <time>2011-03-29T13:55:04Z</time>
      </trkpt>
      <trkpt lat="47.04911" lon="5.4784">
        <ele>197.688232</ele>
        <time>2011-03-29T13:55:34Z</time>
      </trkpt>
      <trkpt lat="47.04795" lon="5.47803">
        <ele>197.688232</ele>
        <time>2011-03-29T13:55:55Z</time>
      </trkpt>
      <trkpt lat="47.04674" lon="5.47742">
        <ele>197.688232</ele>
        <time>2011-03-29T13:56:17Z</time>
      </trkpt>
      <trkpt lat="47.04552" lon="5.47615">
        <ele>197.20752</ele>
        <time>2011-03-29T13:56:43Z</time>
      </trkpt>
      <trkpt lat="47.0443" lon="5.4747">
        <ele>197.20752</ele>
        <time>2011-03-29T13:57:10Z</time>
      </trkpt>
      <trkpt lat="47.043" lon="5.47372">
        <ele>197.20752</ele>
        <time>2011-03-29T13:57:35Z</time>
      </trkpt>
      <trkpt lat="47.04285" lon="5.47361">
        <ele>196.726929</ele>
        <time>2011-03-29T13:57:38Z</time>
      </trkpt>
      <trkpt lat="47.0428" lon="5.47321">
        <ele>197.20752</ele>
        <time>2011-03-29T13:57:45Z</time>
      </trkpt>
      <trkpt lat="47.04299" lon="5.47253">
        <ele>197.688232</ele>
        <time>2011-03-29T13:57:57Z</time>
      </trkpt>
      <trkpt lat="47.04302" lon="5.47202">
        <ele>196.726929</ele>
        <time>2011-03-29T13:58:04Z</time>
      </trkpt>
      <trkpt lat="47.04304" lon="5.47188">
        <ele>197.20752</ele>
        <time>2011-03-29T13:58:06Z</time>
      </trkpt>
      <trkpt lat="47.04313" lon="5.47164">
        <ele>196.246338</ele>
        <time>2011-03-29T13:58:10Z</time>
      </trkpt>
      <trkpt lat="47.0436" lon="5.4715">
        <ele>196.246338</ele>
        <time>2011-03-29T13:58:20Z</time>
      </trkpt>
      <trkpt lat="47.04488" lon="5.47116">
        <ele>195.765625</ele>
        <time>2011-03-29T13:58:44Z</time>
      </trkpt>
      <trkpt lat="47.04622" lon="5.47087">
        <ele>196.726929</ele>
        <time>2011-03-29T13:59:07Z</time>
      </trkpt>
      <trkpt lat="47.04734" lon="5.47049">
        <ele>196.726929</ele>
        <time>2011-03-29T13:59:27Z</time>
      </trkpt>
      <trkpt lat="47.04856" lon="5.47007">
        <ele>197.20752</ele>
        <time>2011-03-29T13:59:49Z</time>
      </trkpt>
      <trkpt lat="47.04976" lon="5.46955">
        <ele>197.688232</ele>
        <time>2011-03-29T14:00:11Z</time>
      </trkpt>
      <trkpt lat="47.05065" lon="5.46846">
        <ele>197.20752</ele>
        <time>2011-03-29T14:00:31Z</time>
      </trkpt>
      <trkpt lat="47.05213" lon="5.46666">
        <ele>197.20752</ele>
        <time>2011-03-29T14:01:03Z</time>
      </trkpt>
      <trkpt lat="47.05334" lon="5.46549">
        <ele>197.688232</ele>
        <time>2011-03-29T14:01:25Z</time>
      </trkpt>
      <trkpt lat="47.05422" lon="5.46471">
        <ele>200.572266</ele>
        <time>2011-03-29T14:01:42Z</time>
      </trkpt>
      <trkpt lat="47.05488" lon="5.46402">
        <ele>201.052856</ele>
        <time>2011-03-29T14:01:59Z</time>
      </trkpt>
      <trkpt lat="47.05558" lon="5.46335">
        <ele>200.091675</ele>
        <time>2011-03-29T14:02:15Z</time>
      </trkpt>
      <trkpt lat="47.05575" lon="5.46327">
        <ele>198.649536</ele>
        <time>2011-03-29T14:02:18Z</time>
      </trkpt>
      <trkpt lat="47.05628" lon="5.46327">
        <ele>197.688232</ele>
        <time>2011-03-29T14:02:26Z</time>
      </trkpt>
      <trkpt lat="47.05647" lon="5.46328">
        <ele>197.20752</ele>
        <time>2011-03-29T14:02:29Z</time>
      </trkpt>
      <trkpt lat="47.05779" lon="5.46349">
        <ele>196.726929</ele>
        <time>2011-03-29T14:02:52Z</time>
      </trkpt>
      <trkpt lat="47.05844" lon="5.46357">
        <ele>196.726929</ele>
        <time>2011-03-29T14:03:03Z</time>
      </trkpt>
      <trkpt lat="47.05866" lon="5.46348">
        <ele>196.726929</ele>
        <time>2011-03-29T14:03:07Z</time>
      </trkpt>
      <trkpt lat="47.05881" lon="5.46336">
        <ele>196.726929</ele>
        <time>2011-03-29T14:03:10Z</time>
      </trkpt>
      <trkpt lat="47.05983" lon="5.46255">
        <ele>197.688232</ele>
        <time>2011-03-29T14:03:30Z</time>
      </trkpt>
      <trkpt lat="47.06056" lon="5.46195">
        <ele>198.649536</ele>
        <time>2011-03-29T14:03:44Z</time>
      </trkpt>
      <trkpt lat="47.06068" lon="5.46179">
        <ele>199.130127</ele>
        <time>2011-03-29T14:03:47Z</time>
      </trkpt>
      <trkpt lat="47.06087" lon="5.46143">
        <ele>201.052856</ele>
        <time>2011-03-29T14:03:53Z</time>
      </trkpt>
      <trkpt lat="47.061" lon="5.46103">
        <ele>202.014282</ele>
        <time>2011-03-29T14:04:02Z</time>
      </trkpt>
      <trkpt lat="47.06076" lon="5.46073">
        <ele>199.61084</ele>
        <time>2011-03-29T14:04:10Z</time>
      </trkpt>
      <trkpt lat="47.06039" lon="5.45987">
        <ele>198.649536</ele>
        <time>2011-03-29T14:04:23Z</time>
      </trkpt>
      <trkpt lat="47.05985" lon="5.45808">
        <ele>199.130127</ele>
        <time>2011-03-29T14:04:49Z</time>
      </trkpt>
      <trkpt lat="47.05926" lon="5.45624">
        <ele>200.091675</ele>
        <time>2011-03-29T14:05:15Z</time>
      </trkpt>
      <trkpt lat="47.05875" lon="5.45464">
        <ele>200.572266</ele>
        <time>2011-03-29T14:05:36Z</time>
      </trkpt>
      <trkpt lat="47.05836" lon="5.45333">
        <ele>199.130127</ele>
        <time>2011-03-29T14:05:52Z</time>
      </trkpt>
      <trkpt lat="47.0577" lon="5.45129">
        <ele>199.61084</ele>
        <time>2011-03-29T14:06:17Z</time>
      </trkpt>
      <trkpt lat="47.05692" lon="5.44875">
        <ele>199.130127</ele>
        <time>2011-03-29T14:06:47Z</time>
      </trkpt>
      <trkpt lat="47.05638" lon="5.4471">
        <ele>199.61084</ele>
        <time>2011-03-29T14:07:07Z</time>
      </trkpt>
      <trkpt lat="47.0558" lon="5.44521">
        <ele>199.130127</ele>
        <time>2011-03-29T14:07:30Z</time>
      </trkpt>
      <trkpt lat="47.0555" lon="5.44415">
        <ele>199.130127</ele>
        <time>2011-03-29T14:07:43Z</time>
      </trkpt>
      <trkpt lat="47.05552" lon="5.44371">
        <ele>198.649536</ele>
        <time>2011-03-29T14:07:48Z</time>
      </trkpt>
      <trkpt lat="47.05568" lon="5.44333">
        <ele>198.168945</ele>
        <time>2011-03-29T14:07:53Z</time>
      </trkpt>
      <trkpt lat="47.05603" lon="5.44285">
        <ele>198.168945</ele>
        <time>2011-03-29T14:08:01Z</time>
      </trkpt>
      <trkpt lat="47.05621" lon="5.44267">
        <ele>198.168945</ele>
        <time>2011-03-29T14:08:05Z</time>
      </trkpt>
      <trkpt lat="47.05633" lon="5.44238">
        <ele>197.688232</ele>
        <time>2011-03-29T14:08:10Z</time>
      </trkpt>
      <trkpt lat="47.05669" lon="5.44206">
        <ele>197.20752</ele>
        <time>2011-03-29T14:08:19Z</time>
      </trkpt>
      <trkpt lat="47.05748" lon="5.44111">
        <ele>196.726929</ele>
        <time>2011-03-29T14:08:37Z</time>
      </trkpt>
      <trkpt lat="47.05869" lon="5.43951">
        <ele>196.726929</ele>
        <time>2011-03-29T14:09:04Z</time>
      </trkpt>
      <trkpt lat="47.05956" lon="5.43825">
        <ele>197.20752</ele>
        <time>2011-03-29T14:09:24Z</time>
      </trkpt>
      <trkpt lat="47.05963" lon="5.43811">
        <ele>196.726929</ele>
        <time>2011-03-29T14:09:26Z</time>
      </trkpt>
      <trkpt lat="47.05979" lon="5.43738">
        <ele>197.20752</ele>
        <time>2011-03-29T14:09:39Z</time>
      </trkpt>
      <trkpt lat="47.05974" lon="5.43655">
        <ele>197.688232</ele>
        <time>2011-03-29T14:09:53Z</time>
      </trkpt>
      <trkpt lat="47.05973" lon="5.43553">
        <ele>196.726929</ele>
        <time>2011-03-29T14:10:06Z</time>
      </trkpt>
      <trkpt lat="47.05973" lon="5.43291">
        <ele>195.765625</ele>
        <time>2011-03-29T14:10:37Z</time>
      </trkpt>
      <trkpt lat="47.05971" lon="5.4304">
        <ele>195.765625</ele>
        <time>2011-03-29T14:11:05Z</time>
      </trkpt>
      <trkpt lat="47.05971" lon="5.43005">
        <ele>196.246338</ele>
        <time>2011-03-29T14:11:09Z</time>
      </trkpt>
      <trkpt lat="47.05965" lon="5.42973">
        <ele>196.246338</ele>
        <time>2011-03-29T14:11:13Z</time>
      </trkpt>
      <trkpt lat="47.05965" lon="5.42944">
        <ele>196.246338</ele>
        <time>2011-03-29T14:11:17Z</time>
      </trkpt>
      <trkpt lat="47.05968" lon="5.42929">
        <ele>195.765625</ele>
        <time>2011-03-29T14:11:19Z</time>
      </trkpt>
      <trkpt lat="47.0597" lon="5.42786">
        <ele>195.765625</ele>
        <time>2011-03-29T14:11:36Z</time>
      </trkpt>
      <trkpt lat="47.05971" lon="5.42682">
        <ele>198.649536</ele>
        <time>2011-03-29T14:11:52Z</time>
      </trkpt>
      <trkpt lat="47.05954" lon="5.42677">
        <ele>199.130127</ele>
        <time>2011-03-29T14:12:01Z</time>
      </trkpt>
      <trkpt lat="47.05945" lon="5.42662">
        <ele>198.168945</ele>
        <time>2011-03-29T14:12:06Z</time>
      </trkpt>
      <trkpt lat="47.05948" lon="5.42566">
        <ele>195.284912</ele>
        <time>2011-03-29T14:12:18Z</time>
      </trkpt>
      <trkpt lat="47.05949" lon="5.42439">
        <ele>195.765625</ele>
        <time>2011-03-29T14:12:35Z</time>
      </trkpt>
      <trkpt lat="47.0595" lon="5.42393">
        <ele>195.284912</ele>
        <time>2011-03-29T14:12:41Z</time>
      </trkpt>
      <trkpt lat="47.05954" lon="5.42257">
        <ele>196.246338</ele>
        <time>2011-03-29T14:12:57Z</time>
      </trkpt>
      <trkpt lat="47.05953" lon="5.42063">
        <ele>196.246338</ele>
        <time>2011-03-29T14:13:18Z</time>
      </trkpt>
      <trkpt lat="47.05953" lon="5.41777">
        <ele>195.765625</ele>
        <time>2011-03-29T14:13:49Z</time>
      </trkpt>
      <trkpt lat="47.05953" lon="5.4161">
        <ele>196.246338</ele>
        <time>2011-03-29T14:14:07Z</time>
      </trkpt>
      <trkpt lat="47.05947" lon="5.41396">
        <ele>196.246338</ele>
        <time>2011-03-29T14:14:30Z</time>
      </trkpt>
      <trkpt lat="47.05941" lon="5.41325">
        <ele>196.246338</ele>
        <time>2011-03-29T14:14:39Z</time>
      </trkpt>
      <trkpt lat="47.05945" lon="5.41279">
        <ele>196.246338</ele>
        <time>2011-03-29T14:14:50Z</time>
      </trkpt>
      <trkpt lat="47.05945" lon="5.41279">
        <ele>196.726929</ele>
        <time>2011-03-29T14:15:25Z</time>
      </trkpt>
      <trkpt lat="47.05933" lon="5.41268">
        <ele>196.246338</ele>
        <time>2011-03-29T14:15:32Z</time>
      </trkpt>
      <trkpt lat="47.0587" lon="5.41264">
        <ele>193.362305</ele>
        <time>2011-03-29T14:15:44Z</time>
      </trkpt>
      <trkpt lat="47.05864" lon="5.41264">
        <ele>193.843018</ele>
        <time>2011-03-29T14:15:45Z</time>
      </trkpt>
      <trkpt lat="47.05814" lon="5.413">
        <ele>193.362305</ele>
        <time>2011-03-29T14:15:54Z</time>
      </trkpt>
      <trkpt lat="47.05778" lon="5.41365">
        <ele>193.362305</ele>
        <time>2011-03-29T14:16:03Z</time>
      </trkpt>
      <trkpt lat="47.05751" lon="5.41385">
        <ele>193.843018</ele>
        <time>2011-03-29T14:16:08Z</time>
      </trkpt>
      <trkpt lat="47.05641" lon="5.41386">
        <ele>193.843018</ele>
        <time>2011-03-29T14:16:25Z</time>
      </trkpt>
      <trkpt lat="47.0552" lon="5.41387">
        <ele>193.362305</ele>
        <time>2011-03-29T14:16:44Z</time>
      </trkpt>
      <trkpt lat="47.05437" lon="5.41388">
        <ele>193.362305</ele>
        <time>2011-03-29T14:16:57Z</time>
      </trkpt>
      <trkpt lat="47.05349" lon="5.41388">
        <ele>192.881714</ele>
        <time>2011-03-29T14:17:11Z</time>
      </trkpt>
      <trkpt lat="47.05282" lon="5.41387">
        <ele>193.362305</ele>
        <time>2011-03-29T14:17:22Z</time>
      </trkpt>
      <trkpt lat="47.0526" lon="5.41374">
        <ele>193.362305</ele>
        <time>2011-03-29T14:17:26Z</time>
      </trkpt>
      <trkpt lat="47.05232" lon="5.41373">
        <ele>193.362305</ele>
        <time>2011-03-29T14:17:31Z</time>
      </trkpt>
      <trkpt lat="47.05221" lon="5.41382">
        <ele>192.881714</ele>
        <time>2011-03-29T14:17:33Z</time>
      </trkpt>
      <trkpt lat="47.05118" lon="5.41389">
        <ele>192.401123</ele>
        <time>2011-03-29T14:17:50Z</time>
      </trkpt>
      <trkpt lat="47.05022" lon="5.41388">
        <ele>192.401123</ele>
        <time>2011-03-29T14:18:06Z</time>
      </trkpt>
      <trkpt lat="47.04888" lon="5.41388">
        <ele>192.401123</ele>
        <time>2011-03-29T14:18:28Z</time>
      </trkpt>
      <trkpt lat="47.04864" lon="5.41376">
        <ele>192.401123</ele>
        <time>2011-03-29T14:18:33Z</time>
      </trkpt>
      <trkpt lat="47.04845" lon="5.41379">
        <ele>192.401123</ele>
        <time>2011-03-29T14:18:37Z</time>
      </trkpt>
      <trkpt lat="47.04835" lon="5.41383">
        <ele>192.401123</ele>
        <time>2011-03-29T14:18:39Z</time>
      </trkpt>
      <trkpt lat="47.04789" lon="5.41382">
        <ele>192.881714</ele>
        <time>2011-03-29T14:18:47Z</time>
      </trkpt>
      <trkpt lat="47.04758" lon="5.41369">
        <ele>192.401123</ele>
        <time>2011-03-29T14:18:53Z</time>
      </trkpt>
      <trkpt lat="47.04747" lon="5.41371">
        <ele>192.401123</ele>
        <time>2011-03-29T14:18:55Z</time>
      </trkpt>
      <trkpt lat="47.04674" lon="5.41347">
        <ele>192.401123</ele>
        <time>2011-03-29T14:19:09Z</time>
      </trkpt>
      <trkpt lat="47.04618" lon="5.41328">
        <ele>192.401123</ele>
        <time>2011-03-29T14:19:22Z</time>
      </trkpt>
      <trkpt lat="47.04524" lon="5.41295">
        <ele>192.881714</ele>
        <time>2011-03-29T14:19:40Z</time>
      </trkpt>
      <trkpt lat="47.04463" lon="5.41279">
        <ele>192.401123</ele>
        <time>2011-03-29T14:19:51Z</time>
      </trkpt>
      <trkpt lat="47.04381" lon="5.41272">
        <ele>191.920288</ele>
        <time>2011-03-29T14:20:05Z</time>
      </trkpt>
      <trkpt lat="47.04359" lon="5.4127">
        <ele>191.920288</ele>
        <time>2011-03-29T14:20:10Z</time>
      </trkpt>
      <trkpt lat="47.04343" lon="5.41256">
        <ele>191.920288</ele>
        <time>2011-03-29T14:20:15Z</time>
      </trkpt>
      <trkpt lat="47.04336" lon="5.4125">
        <ele>191.920288</ele>
        <time>2011-03-29T14:20:17Z</time>
      </trkpt>
      <trkpt lat="47.04322" lon="5.41256">
        <ele>191.439575</ele>
        <time>2011-03-29T14:20:21Z</time>
      </trkpt>
      <trkpt lat="47.04311" lon="5.41267">
        <ele>191.439575</ele>
        <time>2011-03-29T14:20:24Z</time>
      </trkpt>
      <trkpt lat="47.04293" lon="5.41272">
        <ele>191.439575</ele>
        <time>2011-03-29T14:20:28Z</time>
      </trkpt>
      <trkpt lat="47.04197" lon="5.41268">
        <ele>192.881714</ele>
        <time>2011-03-29T14:20:45Z</time>
      </trkpt>
      <trkpt lat="47.04085" lon="5.41265">
        <ele>191.439575</ele>
        <time>2011-03-29T14:21:05Z</time>
      </trkpt>
      <trkpt lat="47.03945" lon="5.41263">
        <ele>191.920288</ele>
        <time>2011-03-29T14:21:30Z</time>
      </trkpt>
      <trkpt lat="47.03867" lon="5.41262">
        <ele>191.439575</ele>
        <time>2011-03-29T14:21:47Z</time>
      </trkpt>
      <trkpt lat="47.03853" lon="5.41272">
        <ele>190.958984</ele>
        <time>2011-03-29T14:21:58Z</time>
      </trkpt>
      <trkpt lat="47.03852" lon="5.41273">
        <ele>191.439575</ele>
        <time>2011-03-29T14:22:02Z</time>
      </trkpt>
      <trkpt lat="47.03857" lon="5.41289">
        <ele>191.439575</ele>
        <time>2011-03-29T14:22:07Z</time>
      </trkpt>
      <trkpt lat="47.03843" lon="5.41321">
        <ele>190.958984</ele>
        <time>2011-03-29T14:22:15Z</time>
      </trkpt>
      <trkpt lat="47.03812" lon="5.41332">
        <ele>191.439575</ele>
        <time>2011-03-29T14:22:21Z</time>
      </trkpt>
      <trkpt lat="47.03774" lon="5.41327">
        <ele>191.920288</ele>
        <time>2011-03-29T14:22:28Z</time>
      </trkpt>
      <trkpt lat="47.03752" lon="5.41321">
        <ele>192.401123</ele>
        <time>2011-03-29T14:22:32Z</time>
      </trkpt>
      <trkpt lat="47.03742" lon="5.41315">
        <ele>192.401123</ele>
        <time>2011-03-29T14:22:34Z</time>
      </trkpt>
      <trkpt lat="47.03683" lon="5.41242">
        <ele>190.958984</ele>
        <time>2011-03-29T14:22:50Z</time>
      </trkpt>
      <trkpt lat="47.0362" lon="5.41159">
        <ele>190.478394</ele>
        <time>2011-03-29T14:23:07Z</time>
      </trkpt>
      <trkpt lat="47.03576" lon="5.41068">
        <ele>190.478394</ele>
        <time>2011-03-29T14:23:23Z</time>
      </trkpt>
      <trkpt lat="47.03559" lon="5.41017">
        <ele>190.478394</ele>
        <time>2011-03-29T14:23:33Z</time>
      </trkpt>
      <trkpt lat="47.03545" lon="5.41013">
        <ele>190.478394</ele>
        <time>2011-03-29T14:23:37Z</time>
      </trkpt>
      <trkpt lat="47.03511" lon="5.40994">
        <ele>190.478394</ele>
        <time>2011-03-29T14:23:44Z</time>
      </trkpt>
      <trkpt lat="47.03421" lon="5.40865">
        <ele>190.958984</ele>
        <time>2011-03-29T14:24:06Z</time>
      </trkpt>
      <trkpt lat="47.03359" lon="5.40801">
        <ele>190.958984</ele>
        <time>2011-03-29T14:24:20Z</time>
      </trkpt>
      <trkpt lat="47.03344" lon="5.40781">
        <ele>190.958984</ele>
        <time>2011-03-29T14:24:24Z</time>
      </trkpt>
      <trkpt lat="47.03321" lon="5.40794">
        <ele>190.958984</ele>
        <time>2011-03-29T14:24:30Z</time>
      </trkpt>
      <trkpt lat="47.03315" lon="5.40805">
        <ele>190.958984</ele>
        <time>2011-03-29T14:24:32Z</time>
      </trkpt>
      <trkpt lat="47.03289" lon="5.40801">
        <ele>192.401123</ele>
        <time>2011-03-29T14:24:38Z</time>
      </trkpt>
      <trkpt lat="47.03243" lon="5.40729">
        <ele>195.284912</ele>
        <time>2011-03-29T14:24:52Z</time>
      </trkpt>
      <trkpt lat="47.03204" lon="5.4071">
        <ele>196.726929</ele>
        <time>2011-03-29T14:25:01Z</time>
      </trkpt>
      <trkpt lat="47.03111" lon="5.40737">
        <ele>196.246338</ele>
        <time>2011-03-29T14:25:18Z</time>
      </trkpt>
      <trkpt lat="47.03076" lon="5.40779">
        <ele>194.804321</ele>
        <time>2011-03-29T14:25:25Z</time>
      </trkpt>
      <trkpt lat="47.03059" lon="5.40793">
        <ele>193.843018</ele>
        <time>2011-03-29T14:25:28Z</time>
      </trkpt>
      <trkpt lat="47.03046" lon="5.40766">
        <ele>192.881714</ele>
        <time>2011-03-29T14:25:32Z</time>
      </trkpt>
      <trkpt lat="47.0306" lon="5.40744">
        <ele>192.881714</ele>
        <time>2011-03-29T14:25:35Z</time>
      </trkpt>
      <trkpt lat="47.03103" lon="5.40714">
        <ele>190.958984</ele>
        <time>2011-03-29T14:25:42Z</time>
      </trkpt>
      <trkpt lat="47.03122" lon="5.40648">
        <ele>191.439575</ele>
        <time>2011-03-29T14:25:51Z</time>
      </trkpt>
      <trkpt lat="47.03117" lon="5.40632">
        <ele>190.958984</ele>
        <time>2011-03-29T14:25:53Z</time>
      </trkpt>
      <trkpt lat="47.03077" lon="5.40545">
        <ele>189.997681</ele>
        <time>2011-03-29T14:26:05Z</time>
      </trkpt>
      <trkpt lat="47.03" lon="5.40487">
        <ele>190.958984</ele>
        <time>2011-03-29T14:26:20Z</time>
      </trkpt>
      <trkpt lat="47.02864" lon="5.40395">
        <ele>189.997681</ele>
        <time>2011-03-29T14:26:45Z</time>
      </trkpt>
      <trkpt lat="47.0269" lon="5.40278">
        <ele>190.958984</ele>
        <time>2011-03-29T14:27:15Z</time>
      </trkpt>
      <trkpt lat="47.02573" lon="5.4018">
        <ele>190.478394</ele>
        <time>2011-03-29T14:27:37Z</time>
      </trkpt>
      <trkpt lat="47.02388" lon="5.40009">
        <ele>190.958984</ele>
        <time>2011-03-29T14:28:12Z</time>
      </trkpt>
      <trkpt lat="47.02269" lon="5.39892">
        <ele>190.478394</ele>
        <time>2011-03-29T14:28:34Z</time>
      </trkpt>
      <trkpt lat="47.02119" lon="5.39735">
        <ele>189.997681</ele>
        <time>2011-03-29T14:29:02Z</time>
      </trkpt>
      <trkpt lat="47.01984" lon="5.39591">
        <ele>189.997681</ele>
        <time>2011-03-29T14:29:26Z</time>
      </trkpt>
      <trkpt lat="47.01862" lon="5.39476">
        <ele>189.516968</ele>
        <time>2011-03-29T14:29:45Z</time>
      </trkpt>
      <trkpt lat="47.0169" lon="5.39328">
        <ele>189.516968</ele>
        <time>2011-03-29T14:30:12Z</time>
      </trkpt>
      <trkpt lat="47.01572" lon="5.39214">
        <ele>189.997681</ele>
        <time>2011-03-29T14:30:31Z</time>
      </trkpt>
      <trkpt lat="47.01373" lon="5.39058">
        <ele>188.555786</ele>
        <time>2011-03-29T14:31:00Z</time>
      </trkpt>
      <trkpt lat="47.01245" lon="5.38959">
        <ele>189.516968</ele>
        <time>2011-03-29T14:31:20Z</time>
      </trkpt>
      <trkpt lat="47.01152" lon="5.38912">
        <ele>188.075073</ele>
        <time>2011-03-29T14:31:36Z</time>
      </trkpt>
      <trkpt lat="47.01074" lon="5.38884">
        <ele>187.59436</ele>
        <time>2011-03-29T14:31:52Z</time>
      </trkpt>
      <trkpt lat="47.0101" lon="5.38833">
        <ele>187.11377</ele>
        <time>2011-03-29T14:32:08Z</time>
      </trkpt>
      <trkpt lat="47.00986" lon="5.38825">
        <ele>188.555786</ele>
        <time>2011-03-29T14:32:13Z</time>
      </trkpt>
      <trkpt lat="47.00948" lon="5.38834">
        <ele>187.59436</ele>
        <time>2011-03-29T14:32:20Z</time>
      </trkpt>
      <trkpt lat="47.00923" lon="5.38807">
        <ele>187.59436</ele>
        <time>2011-03-29T14:32:27Z</time>
      </trkpt>
      <trkpt lat="47.00923" lon="5.388">
        <ele>187.59436</ele>
        <time>2011-03-29T14:32:28Z</time>
      </trkpt>
      <trkpt lat="47.00939" lon="5.38679">
        <ele>188.555786</ele>
        <time>2011-03-29T14:32:43Z</time>
      </trkpt>
      <trkpt lat="47.00944" lon="5.38627">
        <ele>187.59436</ele>
        <time>2011-03-29T14:32:50Z</time>
      </trkpt>
      <trkpt lat="47.00942" lon="5.38595">
        <ele>188.075073</ele>
        <time>2011-03-29T14:32:55Z</time>
      </trkpt>
      <trkpt lat="47.00947" lon="5.38497">
        <ele>187.59436</ele>
        <time>2011-03-29T14:33:11Z</time>
      </trkpt>
      <trkpt lat="47.0095" lon="5.38409">
        <ele>188.075073</ele>
        <time>2011-03-29T14:33:23Z</time>
      </trkpt>
      <trkpt lat="47.00938" lon="5.38292">
        <ele>188.075073</ele>
        <time>2011-03-29T14:33:38Z</time>
      </trkpt>
      <trkpt lat="47.00937" lon="5.38258">
        <ele>187.59436</ele>
        <time>2011-03-29T14:33:42Z</time>
      </trkpt>
      <trkpt lat="47.00926" lon="5.38222">
        <ele>187.59436</ele>
        <time>2011-03-29T14:33:47Z</time>
      </trkpt>
      <trkpt lat="47.0088" lon="5.38146">
        <ele>187.59436</ele>
        <time>2011-03-29T14:34:02Z</time>
      </trkpt>
      <trkpt lat="47.00808" lon="5.38028">
        <ele>188.075073</ele>
        <time>2011-03-29T14:34:23Z</time>
      </trkpt>
      <trkpt lat="47.00788" lon="5.37995">
        <ele>188.075073</ele>
        <time>2011-03-29T14:34:29Z</time>
      </trkpt>
      <trkpt lat="47.00769" lon="5.37972">
        <ele>187.59436</ele>
        <time>2011-03-29T14:34:34Z</time>
      </trkpt>
      <trkpt lat="47.00761" lon="5.37947">
        <ele>188.075073</ele>
        <time>2011-03-29T14:34:38Z</time>
      </trkpt>
      <trkpt lat="47.00744" lon="5.37805">
        <ele>187.11377</ele>
        <time>2011-03-29T14:34:58Z</time>
      </trkpt>
      <trkpt lat="47.0074" lon="5.37783">
        <ele>188.075073</ele>
        <time>2011-03-29T14:35:01Z</time>
      </trkpt>
      <trkpt lat="47.00723" lon="5.37749">
        <ele>187.59436</ele>
        <time>2011-03-29T14:35:08Z</time>
      </trkpt>
      <trkpt lat="47.00648" lon="5.37743">
        <ele>188.075073</ele>
        <time>2011-03-29T14:35:24Z</time>
      </trkpt>
      <trkpt lat="47.00558" lon="5.37738">
        <ele>188.075073</ele>
        <time>2011-03-29T14:35:41Z</time>
      </trkpt>
      <trkpt lat="47.00462" lon="5.37722">
        <ele>188.555786</ele>
        <time>2011-03-29T14:35:58Z</time>
      </trkpt>
      <trkpt lat="47.00328" lon="5.3769">
        <ele>188.555786</ele>
        <time>2011-03-29T14:36:21Z</time>
      </trkpt>
      <trkpt lat="47.00208" lon="5.37612">
        <ele>189.036377</ele>
        <time>2011-03-29T14:36:42Z</time>
      </trkpt>
      <trkpt lat="47.00061" lon="5.37509">
        <ele>189.036377</ele>
        <time>2011-03-29T14:37:07Z</time>
      </trkpt>
      <trkpt lat="46.99956" lon="5.37434">
        <ele>188.555786</ele>
        <time>2011-03-29T14:37:25Z</time>
      </trkpt>
      <trkpt lat="46.99771" lon="5.37295">
        <ele>188.555786</ele>
        <time>2011-03-29T14:37:57Z</time>
      </trkpt>
      <trkpt lat="46.99632" lon="5.37171">
        <ele>188.555786</ele>
        <time>2011-03-29T14:38:21Z</time>
      </trkpt>
      <trkpt lat="46.99464" lon="5.37067">
        <ele>188.555786</ele>
        <time>2011-03-29T14:38:47Z</time>
      </trkpt>
      <trkpt lat="46.9938" lon="5.37055">
        <ele>188.555786</ele>
        <time>2011-03-29T14:39:00Z</time>
      </trkpt>
      <trkpt lat="46.99322" lon="5.37077">
        <ele>188.075073</ele>
        <time>2011-03-29T14:39:09Z</time>
      </trkpt>
      <trkpt lat="46.99281" lon="5.37048">
        <ele>187.59436</ele>
        <time>2011-03-29T14:39:16Z</time>
      </trkpt>
      <trkpt lat="46.99256" lon="5.36977">
        <ele>187.59436</ele>
        <time>2011-03-29T14:39:24Z</time>
      </trkpt>
      <trkpt lat="46.99255" lon="5.36941">
        <ele>187.11377</ele>
        <time>2011-03-29T14:39:28Z</time>
      </trkpt>
      <trkpt lat="46.99261" lon="5.36895">
        <ele>186.633179</ele>
        <time>2011-03-29T14:39:33Z</time>
      </trkpt>
      <trkpt lat="46.99251" lon="5.36854">
        <ele>187.11377</ele>
        <time>2011-03-29T14:39:38Z</time>
      </trkpt>
      <trkpt lat="46.99183" lon="5.3674">
        <ele>185.671753</ele>
        <time>2011-03-29T14:39:57Z</time>
      </trkpt>
      <trkpt lat="46.99179" lon="5.36734">
        <ele>185.191162</ele>
        <time>2011-03-29T14:40:08Z</time>
      </trkpt>
      <trkpt lat="46.99177" lon="5.36731">
        <ele>185.191162</ele>
        <time>2011-03-29T14:41:10Z</time>
      </trkpt>
      <trkpt lat="46.99168" lon="5.36728">
        <ele>185.671753</ele>
        <time>2011-03-29T14:41:14Z</time>
      </trkpt>
      <trkpt lat="46.99095" lon="5.3675">
        <ele>186.152466</ele>
        <time>2011-03-29T14:41:31Z</time>
      </trkpt>
      <trkpt lat="46.99014" lon="5.36776">
        <ele>186.633179</ele>
        <time>2011-03-29T14:41:47Z</time>
      </trkpt>
      <trkpt lat="46.98919" lon="5.36755">
        <ele>187.59436</ele>
        <time>2011-03-29T14:42:04Z</time>
      </trkpt>
      <trkpt lat="46.98768" lon="5.36697">
        <ele>187.11377</ele>
        <time>2011-03-29T14:42:29Z</time>
      </trkpt>
      <trkpt lat="46.98679" lon="5.36679">
        <ele>187.11377</ele>
        <time>2011-03-29T14:42:43Z</time>
      </trkpt>
      <trkpt lat="46.98662" lon="5.36662">
        <ele>187.11377</ele>
        <time>2011-03-29T14:42:47Z</time>
      </trkpt>
      <trkpt lat="46.98646" lon="5.36634">
        <ele>186.152466</ele>
        <time>2011-03-29T14:42:52Z</time>
      </trkpt>
      <trkpt lat="46.98571" lon="5.3657">
        <ele>186.633179</ele>
        <time>2011-03-29T14:43:08Z</time>
      </trkpt>
      <trkpt lat="46.98455" lon="5.36501">
        <ele>185.671753</ele>
        <time>2011-03-29T14:43:30Z</time>
      </trkpt>
      <trkpt lat="46.98294" lon="5.36405">
        <ele>187.11377</ele>
        <time>2011-03-29T14:44:00Z</time>
      </trkpt>
      <trkpt lat="46.98267" lon="5.36378">
        <ele>186.152466</ele>
        <time>2011-03-29T14:44:05Z</time>
      </trkpt>
      <trkpt lat="46.98212" lon="5.36243">
        <ele>186.152466</ele>
        <time>2011-03-29T14:44:22Z</time>
      </trkpt>
      <trkpt lat="46.98146" lon="5.3614">
        <ele>185.671753</ele>
        <time>2011-03-29T14:44:37Z</time>
      </trkpt>
      <trkpt lat="46.98038" lon="5.36097">
        <ele>185.671753</ele>
        <time>2011-03-29T14:44:54Z</time>
      </trkpt>
      <trkpt lat="46.97852" lon="5.36083">
        <ele>184.710571</ele>
        <time>2011-03-29T14:45:23Z</time>
      </trkpt>
      <trkpt lat="46.97739" lon="5.36075">
        <ele>185.191162</ele>
        <time>2011-03-29T14:45:41Z</time>
      </trkpt>
      <trkpt lat="46.97505" lon="5.36056">
        <ele>185.191162</ele>
        <time>2011-03-29T14:46:17Z</time>
      </trkpt>
      <trkpt lat="46.97261" lon="5.36037">
        <ele>185.191162</ele>
        <time>2011-03-29T14:46:53Z</time>
      </trkpt>
      <trkpt lat="46.96974" lon="5.36013">
        <ele>184.710571</ele>
        <time>2011-03-29T14:47:33Z</time>
      </trkpt>
      <trkpt lat="46.96808" lon="5.36">
        <ele>185.671753</ele>
        <time>2011-03-29T14:47:54Z</time>
      </trkpt>
      <trkpt lat="46.96686" lon="5.36009">
        <ele>185.191162</ele>
        <time>2011-03-29T14:48:09Z</time>
      </trkpt>
      <trkpt lat="46.96558" lon="5.36109">
        <ele>184.710571</ele>
        <time>2011-03-29T14:48:26Z</time>
      </trkpt>
      <trkpt lat="46.96427" lon="5.36272">
        <ele>183.749023</ele>
        <time>2011-03-29T14:48:47Z</time>
      </trkpt>
      <trkpt lat="46.96301" lon="5.3638">
        <ele>184.229858</ele>
        <time>2011-03-29T14:49:07Z</time>
      </trkpt>
      <trkpt lat="46.96218" lon="5.36495">
        <ele>184.229858</ele>
        <time>2011-03-29T14:49:23Z</time>
      </trkpt>
      <trkpt lat="46.96139" lon="5.36644">
        <ele>183.268433</ele>
        <time>2011-03-29T14:49:41Z</time>
      </trkpt>
      <trkpt lat="46.96091" lon="5.36741">
        <ele>183.268433</ele>
        <time>2011-03-29T14:49:53Z</time>
      </trkpt>
      <trkpt lat="46.96023" lon="5.36785">
        <ele>184.229858</ele>
        <time>2011-03-29T14:50:06Z</time>
      </trkpt>
      <trkpt lat="46.95952" lon="5.36873">
        <ele>183.268433</ele>
        <time>2011-03-29T14:50:22Z</time>
      </trkpt>
      <trkpt lat="46.95891" lon="5.37025">
        <ele>183.268433</ele>
        <time>2011-03-29T14:50:43Z</time>
      </trkpt>
      <trkpt lat="46.95835" lon="5.37172">
        <ele>182.787842</ele>
        <time>2011-03-29T14:51:03Z</time>
      </trkpt>
      <trkpt lat="46.95805" lon="5.37242">
        <ele>182.307129</ele>
        <time>2011-03-29T14:51:20Z</time>
      </trkpt>
      <trkpt lat="46.9578" lon="5.37226">
        <ele>183.268433</ele>
        <time>2011-03-29T14:51:31Z</time>
      </trkpt>
      <trkpt lat="46.95708" lon="5.37159">
        <ele>183.749023</ele>
        <time>2011-03-29T14:51:52Z</time>
      </trkpt>
      <trkpt lat="46.95611" lon="5.3707">
        <ele>183.268433</ele>
        <time>2011-03-29T14:52:16Z</time>
      </trkpt>
      <trkpt lat="46.95487" lon="5.36952">
        <ele>183.749023</ele>
        <time>2011-03-29T14:52:42Z</time>
      </trkpt>
      <trkpt lat="46.95475" lon="5.36932">
        <ele>184.710571</ele>
        <time>2011-03-29T14:52:45Z</time>
      </trkpt>
      <trkpt lat="46.95463" lon="5.36881">
        <ele>184.710571</ele>
        <time>2011-03-29T14:52:51Z</time>
      </trkpt>
      <trkpt lat="46.95451" lon="5.36683">
        <ele>183.749023</ele>
        <time>2011-03-29T14:53:13Z</time>
      </trkpt>
      <trkpt lat="46.95413" lon="5.36505">
        <ele>184.710571</ele>
        <time>2011-03-29T14:53:33Z</time>
      </trkpt>
      <trkpt lat="46.95338" lon="5.36382">
        <ele>184.229858</ele>
        <time>2011-03-29T14:53:50Z</time>
      </trkpt>
      <trkpt lat="46.95234" lon="5.36311">
        <ele>184.710571</ele>
        <time>2011-03-29T14:54:07Z</time>
      </trkpt>
      <trkpt lat="46.95112" lon="5.3628">
        <ele>184.229858</ele>
        <time>2011-03-29T14:54:25Z</time>
      </trkpt>
      <trkpt lat="46.95058" lon="5.36259">
        <ele>184.229858</ele>
        <time>2011-03-29T14:54:33Z</time>
      </trkpt>
      <trkpt lat="46.94943" lon="5.36124">
        <ele>185.191162</ele>
        <time>2011-03-29T14:54:54Z</time>
      </trkpt>
      <trkpt lat="46.94841" lon="5.35977">
        <ele>183.749023</ele>
        <time>2011-03-29T14:55:15Z</time>
      </trkpt>
      <trkpt lat="46.94731" lon="5.35761">
        <ele>183.268433</ele>
        <time>2011-03-29T14:55:42Z</time>
      </trkpt>
      <trkpt lat="46.94602" lon="5.35491">
        <ele>183.749023</ele>
        <time>2011-03-29T14:56:15Z</time>
      </trkpt>
      <trkpt lat="46.94469" lon="5.35214">
        <ele>183.268433</ele>
        <time>2011-03-29T14:56:49Z</time>
      </trkpt>
      <trkpt lat="46.94334" lon="5.34982">
        <ele>182.307129</ele>
        <time>2011-03-29T14:57:19Z</time>
      </trkpt>
      <trkpt lat="46.94213" lon="5.34816">
        <ele>182.307129</ele>
        <time>2011-03-29T14:57:43Z</time>
      </trkpt>
      <trkpt lat="46.94045" lon="5.34635">
        <ele>182.307129</ele>
        <time>2011-03-29T14:58:14Z</time>
      </trkpt>
      <trkpt lat="46.93924" lon="5.34524">
        <ele>181.826416</ele>
        <time>2011-03-29T14:58:35Z</time>
      </trkpt>
      <trkpt lat="46.93873" lon="5.34407">
        <ele>180.865234</ele>
        <time>2011-03-29T14:58:49Z</time>
      </trkpt>
      <trkpt lat="46.93842" lon="5.34339">
        <ele>180.384521</ele>
        <time>2011-03-29T14:58:58Z</time>
      </trkpt>
      <trkpt lat="46.93817" lon="5.34329">
        <ele>179.903809</ele>
        <time>2011-03-29T14:59:03Z</time>
      </trkpt>
      <trkpt lat="46.93721" lon="5.34343">
        <ele>180.865234</ele>
        <time>2011-03-29T14:59:20Z</time>
      </trkpt>
      <trkpt lat="46.93618" lon="5.34316">
        <ele>180.865234</ele>
        <time>2011-03-29T14:59:39Z</time>
      </trkpt>
      <trkpt lat="46.93496" lon="5.34318">
        <ele>181.826416</ele>
        <time>2011-03-29T15:00:00Z</time>
      </trkpt>
      <trkpt lat="46.93404" lon="5.34377">
        <ele>181.826416</ele>
        <time>2011-03-29T15:00:17Z</time>
      </trkpt>
      <trkpt lat="46.933" lon="5.34405">
        <ele>181.345825</ele>
        <time>2011-03-29T15:00:34Z</time>
      </trkpt>
      <trkpt lat="46.93224" lon="5.34465">
        <ele>180.865234</ele>
        <time>2011-03-29T15:00:48Z</time>
      </trkpt>
      <trkpt lat="46.93219" lon="5.34472">
        <ele>180.865234</ele>
        <time>2011-03-29T15:00:49Z</time>
      </trkpt>
      <trkpt lat="46.9315" lon="5.34619">
        <ele>181.345825</ele>
        <time>2011-03-29T15:01:08Z</time>
      </trkpt>
      <trkpt lat="46.93091" lon="5.34756">
        <ele>181.826416</ele>
        <time>2011-03-29T15:01:24Z</time>
      </trkpt>
      <trkpt lat="46.9303" lon="5.34884">
        <ele>180.865234</ele>
        <time>2011-03-29T15:01:40Z</time>
      </trkpt>
      <trkpt lat="46.93023" lon="5.34909">
        <ele>180.865234</ele>
        <time>2011-03-29T15:01:43Z</time>
      </trkpt>
      <trkpt lat="46.93013" lon="5.3493">
        <ele>180.865234</ele>
        <time>2011-03-29T15:01:46Z</time>
      </trkpt>
      <trkpt lat="46.92979" lon="5.34953">
        <ele>181.345825</ele>
        <time>2011-03-29T15:01:53Z</time>
      </trkpt>
      <trkpt lat="46.9285" lon="5.34948">
        <ele>180.865234</ele>
        <time>2011-03-29T15:02:14Z</time>
      </trkpt>
      <trkpt lat="46.92673" lon="5.34967">
        <ele>180.865234</ele>
        <time>2011-03-29T15:02:41Z</time>
      </trkpt>
      <trkpt lat="46.92438" lon="5.34985">
        <ele>181.826416</ele>
        <time>2011-03-29T15:03:15Z</time>
      </trkpt>
      <trkpt lat="46.92338" lon="5.35012">
        <ele>182.307129</ele>
        <time>2011-03-29T15:03:30Z</time>
      </trkpt>
      <trkpt lat="46.92218" lon="5.3505">
        <ele>184.710571</ele>
        <time>2011-03-29T15:03:50Z</time>
      </trkpt>
      <trkpt lat="46.92195" lon="5.35057">
        <ele>185.671753</ele>
        <time>2011-03-29T15:03:54Z</time>
      </trkpt>
      <trkpt lat="46.9216" lon="5.35037">
        <ele>185.671753</ele>
        <time>2011-03-29T15:04:01Z</time>
      </trkpt>
      <trkpt lat="46.92099" lon="5.34885">
        <ele>188.555786</ele>
        <time>2011-03-29T15:04:23Z</time>
      </trkpt>
      <trkpt lat="46.9209" lon="5.3487">
        <ele>189.997681</ele>
        <time>2011-03-29T15:04:26Z</time>
      </trkpt>
      <trkpt lat="46.92062" lon="5.34824">
        <ele>190.958984</ele>
        <time>2011-03-29T15:04:35Z</time>
      </trkpt>
      <trkpt lat="46.92032" lon="5.34777">
        <ele>193.362305</ele>
        <time>2011-03-29T15:04:45Z</time>
      </trkpt>
      <trkpt lat="46.92014" lon="5.34741">
        <ele>195.765625</ele>
        <time>2011-03-29T15:04:52Z</time>
      </trkpt>
      <trkpt lat="46.91981" lon="5.34691">
        <ele>198.649536</ele>
        <time>2011-03-29T15:05:01Z</time>
      </trkpt>
      <trkpt lat="46.91965" lon="5.34653">
        <ele>199.61084</ele>
        <time>2011-03-29T15:05:07Z</time>
      </trkpt>
      <trkpt lat="46.91956" lon="5.34634">
        <ele>201.052856</ele>
        <time>2011-03-29T15:05:10Z</time>
      </trkpt>
      <trkpt lat="46.91947" lon="5.34616">
        <ele>201.052856</ele>
        <time>2011-03-29T15:05:13Z</time>
      </trkpt>
      <trkpt lat="46.91935" lon="5.34597">
        <ele>201.533569</ele>
        <time>2011-03-29T15:05:17Z</time>
      </trkpt>
      <trkpt lat="46.9192" lon="5.34582">
        <ele>201.533569</ele>
        <time>2011-03-29T15:05:21Z</time>
      </trkpt>
      <trkpt lat="46.91913" lon="5.34576">
        <ele>201.533569</ele>
        <time>2011-03-29T15:05:23Z</time>
      </trkpt>
      <trkpt lat="46.91854" lon="5.34561">
        <ele>201.533569</ele>
        <time>2011-03-29T15:05:38Z</time>
      </trkpt>
      <trkpt lat="46.91789" lon="5.34581">
        <ele>204.41748</ele>
        <time>2011-03-29T15:05:56Z</time>
      </trkpt>
      <trkpt lat="46.91727" lon="5.34604">
        <ele>202.975464</ele>
        <time>2011-03-29T15:06:10Z</time>
      </trkpt>
      <trkpt lat="46.91663" lon="5.34627">
        <ele>201.533569</ele>
        <time>2011-03-29T15:06:22Z</time>
      </trkpt>
      <trkpt lat="46.91622" lon="5.3464">
        <ele>200.572266</ele>
        <time>2011-03-29T15:06:30Z</time>
      </trkpt>
      <trkpt lat="46.91582" lon="5.34652">
        <ele>200.091675</ele>
        <time>2011-03-29T15:06:38Z</time>
      </trkpt>
      <trkpt lat="46.91475" lon="5.34687">
        <ele>202.494873</ele>
        <time>2011-03-29T15:06:58Z</time>
      </trkpt>
      <trkpt lat="46.91385" lon="5.34719">
        <ele>202.975464</ele>
        <time>2011-03-29T15:07:16Z</time>
      </trkpt>
      <trkpt lat="46.9132" lon="5.3474">
        <ele>200.572266</ele>
        <time>2011-03-29T15:07:26Z</time>
      </trkpt>
      <trkpt lat="46.91224" lon="5.34771">
        <ele>201.533569</ele>
        <time>2011-03-29T15:07:41Z</time>
      </trkpt>
      <trkpt lat="46.91214" lon="5.34774">
        <ele>202.014282</ele>
        <time>2011-03-29T15:07:43Z</time>
      </trkpt>
      <trkpt lat="46.91168" lon="5.34793">
        <ele>203.93689</ele>
        <time>2011-03-29T15:07:52Z</time>
      </trkpt>
      <trkpt lat="46.91084" lon="5.34822">
        <ele>206.820679</ele>
        <time>2011-03-29T15:08:06Z</time>
      </trkpt>
      <trkpt lat="46.91045" lon="5.34838">
        <ele>207.782104</ele>
        <time>2011-03-29T15:08:13Z</time>
      </trkpt>
      <trkpt lat="46.90964" lon="5.34864">
        <ele>208.262817</ele>
        <time>2011-03-29T15:08:27Z</time>
      </trkpt>
      <trkpt lat="46.90888" lon="5.34893">
        <ele>208.262817</ele>
        <time>2011-03-29T15:08:40Z</time>
      </trkpt>
      <trkpt lat="46.90795" lon="5.34927">
        <ele>208.743408</ele>
        <time>2011-03-29T15:08:56Z</time>
      </trkpt>
      <trkpt lat="46.90692" lon="5.34964">
        <ele>208.743408</ele>
        <time>2011-03-29T15:09:14Z</time>
      </trkpt>
      <trkpt lat="46.90682" lon="5.34969">
        <ele>208.743408</ele>
        <time>2011-03-29T15:09:16Z</time>
      </trkpt>
      <trkpt lat="46.90664" lon="5.34972">
        <ele>209.224121</ele>
        <time>2011-03-29T15:09:19Z</time>
      </trkpt>
      <trkpt lat="46.90647" lon="5.34985">
        <ele>209.224121</ele>
        <time>2011-03-29T15:09:23Z</time>
      </trkpt>
      <trkpt lat="46.9061" lon="5.34999">
        <ele>209.224121</ele>
        <time>2011-03-29T15:09:30Z</time>
      </trkpt>
      <trkpt lat="46.90561" lon="5.35022">
        <ele>209.704834</ele>
        <time>2011-03-29T15:09:40Z</time>
      </trkpt>
      <trkpt lat="46.90541" lon="5.3503">
        <ele>210.185425</ele>
        <time>2011-03-29T15:09:44Z</time>
      </trkpt>
      <trkpt lat="46.90523" lon="5.3504">
        <ele>209.224121</ele>
        <time>2011-03-29T15:09:48Z</time>
      </trkpt>
      <trkpt lat="46.90505" lon="5.35043">
        <ele>209.224121</ele>
        <time>2011-03-29T15:09:51Z</time>
      </trkpt>
      <trkpt lat="46.90479" lon="5.35052">
        <ele>208.743408</ele>
        <time>2011-03-29T15:09:56Z</time>
      </trkpt>
      <trkpt lat="46.90399" lon="5.35062">
        <ele>208.262817</ele>
        <time>2011-03-29T15:10:07Z</time>
      </trkpt>
      <trkpt lat="46.90369" lon="5.35073">
        <ele>208.262817</ele>
        <time>2011-03-29T15:10:12Z</time>
      </trkpt>
      <trkpt lat="46.90305" lon="5.35094">
        <ele>205.859497</ele>
        <time>2011-03-29T15:10:21Z</time>
      </trkpt>
      <trkpt lat="46.90281" lon="5.35103">
        <ele>204.898071</ele>
        <time>2011-03-29T15:10:24Z</time>
      </trkpt>
      <trkpt lat="46.90216" lon="5.35111">
        <ele>202.494873</ele>
        <time>2011-03-29T15:10:31Z</time>
      </trkpt>
      <trkpt lat="46.90168" lon="5.35125">
        <ele>202.975464</ele>
        <time>2011-03-29T15:10:37Z</time>
      </trkpt>
      <trkpt lat="46.90113" lon="5.35145">
        <ele>203.93689</ele>
        <time>2011-03-29T15:10:45Z</time>
      </trkpt>
      <trkpt lat="46.90029" lon="5.3518">
        <ele>204.898071</ele>
        <time>2011-03-29T15:10:59Z</time>
      </trkpt>
      <trkpt lat="46.89957" lon="5.35202">
        <ele>204.41748</ele>
        <time>2011-03-29T15:11:10Z</time>
      </trkpt>
      <trkpt lat="46.89847" lon="5.35228">
        <ele>202.014282</ele>
        <time>2011-03-29T15:11:25Z</time>
      </trkpt>
      <trkpt lat="46.89823" lon="5.35234">
        <ele>200.572266</ele>
        <time>2011-03-29T15:11:28Z</time>
      </trkpt>
      <trkpt lat="46.89717" lon="5.35264">
        <ele>198.168945</ele>
        <time>2011-03-29T15:11:41Z</time>
      </trkpt>
      <trkpt lat="46.89536" lon="5.35316">
        <ele>197.20752</ele>
        <time>2011-03-29T15:12:05Z</time>
      </trkpt>
      <trkpt lat="46.89529" lon="5.35318">
        <ele>197.20752</ele>
        <time>2011-03-29T15:12:06Z</time>
      </trkpt>
      <trkpt lat="46.89332" lon="5.35377">
        <ele>196.726929</ele>
        <time>2011-03-29T15:12:33Z</time>
      </trkpt>
      <trkpt lat="46.89171" lon="5.35423">
        <ele>199.61084</ele>
        <time>2011-03-29T15:12:58Z</time>
      </trkpt>
      <trkpt lat="46.89099" lon="5.35445">
        <ele>203.456177</ele>
        <time>2011-03-29T15:13:12Z</time>
      </trkpt>
      <trkpt lat="46.89093" lon="5.35446">
        <ele>203.93689</ele>
        <time>2011-03-29T15:13:13Z</time>
      </trkpt>
      <trkpt lat="46.88966" lon="5.35496">
        <ele>206.820679</ele>
        <time>2011-03-29T15:13:37Z</time>
      </trkpt>
      <trkpt lat="46.88845" lon="5.35577">
        <ele>206.820679</ele>
        <time>2011-03-29T15:14:01Z</time>
      </trkpt>
      <trkpt lat="46.88809" lon="5.35611">
        <ele>205.378784</ele>
        <time>2011-03-29T15:14:08Z</time>
      </trkpt>
      <trkpt lat="46.88733" lon="5.35704">
        <ele>203.93689</ele>
        <time>2011-03-29T15:14:27Z</time>
      </trkpt>
      <trkpt lat="46.88675" lon="5.35791">
        <ele>203.93689</ele>
        <time>2011-03-29T15:14:44Z</time>
      </trkpt>
      <trkpt lat="46.88588" lon="5.35917">
        <ele>204.898071</ele>
        <time>2011-03-29T15:15:07Z</time>
      </trkpt>
      <trkpt lat="46.88559" lon="5.35985">
        <ele>206.340088</ele>
        <time>2011-03-29T15:15:17Z</time>
      </trkpt>
      <trkpt lat="46.88552" lon="5.35998">
        <ele>206.340088</ele>
        <time>2011-03-29T15:15:19Z</time>
      </trkpt>
      <trkpt lat="46.88486" lon="5.36058">
        <ele>206.340088</ele>
        <time>2011-03-29T15:15:33Z</time>
      </trkpt>
      <trkpt lat="46.88422" lon="5.36097">
        <ele>208.262817</ele>
        <time>2011-03-29T15:15:46Z</time>
      </trkpt>
      <trkpt lat="46.88365" lon="5.36105">
        <ele>209.224121</ele>
        <time>2011-03-29T15:15:56Z</time>
      </trkpt>
      <trkpt lat="46.88326" lon="5.36129">
        <ele>209.224121</ele>
        <time>2011-03-29T15:16:04Z</time>
      </trkpt>
      <trkpt lat="46.8832" lon="5.3614">
        <ele>209.224121</ele>
        <time>2011-03-29T15:16:06Z</time>
      </trkpt>
      <trkpt lat="46.88297" lon="5.36173">
        <ele>209.704834</ele>
        <time>2011-03-29T15:16:13Z</time>
      </trkpt>
      <trkpt lat="46.88279" lon="5.36195">
        <ele>210.666016</ele>
        <time>2011-03-29T15:16:18Z</time>
      </trkpt>
      <trkpt lat="46.88268" lon="5.3621">
        <ele>210.185425</ele>
        <time>2011-03-29T15:16:21Z</time>
      </trkpt>
      <trkpt lat="46.88244" lon="5.36235">
        <ele>210.666016</ele>
        <time>2011-03-29T15:16:27Z</time>
      </trkpt>
      <trkpt lat="46.88231" lon="5.36248">
        <ele>210.666016</ele>
        <time>2011-03-29T15:16:30Z</time>
      </trkpt>
      <trkpt lat="46.8819" lon="5.36298">
        <ele>210.666016</ele>
        <time>2011-03-29T15:16:40Z</time>
      </trkpt>
      <trkpt lat="46.88157" lon="5.36339">
        <ele>210.666016</ele>
        <time>2011-03-29T15:16:47Z</time>
      </trkpt>
      <trkpt lat="46.88126" lon="5.36379">
        <ele>210.666016</ele>
        <time>2011-03-29T15:16:54Z</time>
      </trkpt>
      <trkpt lat="46.88093" lon="5.36452">
        <ele>211.146729</ele>
        <time>2011-03-29T15:17:04Z</time>
      </trkpt>
      <trkpt lat="46.88074" lon="5.36486">
        <ele>210.666016</ele>
        <time>2011-03-29T15:17:09Z</time>
      </trkpt>
      <trkpt lat="46.88063" lon="5.3652">
        <ele>210.666016</ele>
        <time>2011-03-29T15:17:13Z</time>
      </trkpt>
      <trkpt lat="46.8804" lon="5.36567">
        <ele>210.666016</ele>
        <time>2011-03-29T15:17:19Z</time>
      </trkpt>
      <trkpt lat="46.87982" lon="5.36655">
        <ele>210.185425</ele>
        <time>2011-03-29T15:17:32Z</time>
      </trkpt>
      <trkpt lat="46.87957" lon="5.36692">
        <ele>210.185425</ele>
        <time>2011-03-29T15:17:38Z</time>
      </trkpt>
      <trkpt lat="46.87947" lon="5.36703">
        <ele>209.704834</ele>
        <time>2011-03-29T15:17:40Z</time>
      </trkpt>
      <trkpt lat="46.87919" lon="5.36745">
        <ele>210.185425</ele>
        <time>2011-03-29T15:17:46Z</time>
      </trkpt>
      <trkpt lat="46.87885" lon="5.36785">
        <ele>209.224121</ele>
        <time>2011-03-29T15:17:53Z</time>
      </trkpt>
      <trkpt lat="46.87861" lon="5.3681">
        <ele>210.185425</ele>
        <time>2011-03-29T15:17:57Z</time>
      </trkpt>
      <trkpt lat="46.878" lon="5.36946">
        <ele>207.782104</ele>
        <time>2011-03-29T15:18:12Z</time>
      </trkpt>
      <trkpt lat="46.87767" lon="5.37024">
        <ele>204.41748</ele>
        <time>2011-03-29T15:18:20Z</time>
      </trkpt>
      <trkpt lat="46.87729" lon="5.37093">
        <ele>203.93689</ele>
        <time>2011-03-29T15:18:28Z</time>
      </trkpt>
      <trkpt lat="46.87697" lon="5.37128">
        <ele>205.378784</ele>
        <time>2011-03-29T15:18:34Z</time>
      </trkpt>
      <trkpt lat="46.87665" lon="5.3715">
        <ele>206.820679</ele>
        <time>2011-03-29T15:18:40Z</time>
      </trkpt>
      <trkpt lat="46.87638" lon="5.37168">
        <ele>206.340088</ele>
        <time>2011-03-29T15:18:45Z</time>
      </trkpt>
      <trkpt lat="46.87591" lon="5.37206">
        <ele>204.41748</ele>
        <time>2011-03-29T15:18:53Z</time>
      </trkpt>
      <trkpt lat="46.87533" lon="5.37231">
        <ele>202.494873</ele>
        <time>2011-03-29T15:19:01Z</time>
      </trkpt>
      <trkpt lat="46.87393" lon="5.37239">
        <ele>202.014282</ele>
        <time>2011-03-29T15:19:19Z</time>
      </trkpt>
      <trkpt lat="46.87341" lon="5.37238">
        <ele>205.378784</ele>
        <time>2011-03-29T15:19:28Z</time>
      </trkpt>
      <trkpt lat="46.87262" lon="5.37281">
        <ele>206.820679</ele>
        <time>2011-03-29T15:19:42Z</time>
      </trkpt>
      <trkpt lat="46.87153" lon="5.37386">
        <ele>203.456177</ele>
        <time>2011-03-29T15:20:00Z</time>
      </trkpt>
      <trkpt lat="46.87121" lon="5.37416">
        <ele>204.898071</ele>
        <time>2011-03-29T15:20:06Z</time>
      </trkpt>
      <trkpt lat="46.87111" lon="5.37432">
        <ele>204.898071</ele>
        <time>2011-03-29T15:20:10Z</time>
      </trkpt>
      <trkpt lat="46.87123" lon="5.37471">
        <ele>203.93689</ele>
        <time>2011-03-29T15:20:24Z</time>
      </trkpt>
      <trkpt lat="46.87151" lon="5.37508">
        <ele>202.494873</ele>
        <time>2011-03-29T15:20:37Z</time>
      </trkpt>
      <trkpt lat="46.87194" lon="5.37592">
        <ele>200.572266</ele>
        <time>2011-03-29T15:20:53Z</time>
      </trkpt>
      <trkpt lat="46.8722" lon="5.37646">
        <ele>198.649536</ele>
        <time>2011-03-29T15:21:00Z</time>
      </trkpt>
      <trkpt lat="46.87227" lon="5.37689">
        <ele>197.688232</ele>
        <time>2011-03-29T15:21:05Z</time>
      </trkpt>
      <trkpt lat="46.87223" lon="5.37732">
        <ele>196.246338</ele>
        <time>2011-03-29T15:21:09Z</time>
      </trkpt>
      <trkpt lat="46.87207" lon="5.37793">
        <ele>195.284912</ele>
        <time>2011-03-29T15:21:15Z</time>
      </trkpt>
      <trkpt lat="46.87173" lon="5.37827">
        <ele>194.32373</ele>
        <time>2011-03-29T15:21:21Z</time>
      </trkpt>
      <trkpt lat="46.87069" lon="5.3789">
        <ele>194.804321</ele>
        <time>2011-03-29T15:21:38Z</time>
      </trkpt>
      <trkpt lat="46.86986" lon="5.37994">
        <ele>194.804321</ele>
        <time>2011-03-29T15:21:55Z</time>
      </trkpt>
      <trkpt lat="46.86969" lon="5.38034">
        <ele>195.284912</ele>
        <time>2011-03-29T15:22:00Z</time>
      </trkpt>
      <trkpt lat="46.86961" lon="5.3807">
        <ele>194.804321</ele>
        <time>2011-03-29T15:22:04Z</time>
      </trkpt>
      <trkpt lat="46.86929" lon="5.38127">
        <ele>194.804321</ele>
        <time>2011-03-29T15:22:12Z</time>
      </trkpt>
      <trkpt lat="46.86889" lon="5.38155">
        <ele>195.765625</ele>
        <time>2011-03-29T15:22:19Z</time>
      </trkpt>
      <trkpt lat="46.86779" lon="5.38206">
        <ele>195.284912</ele>
        <time>2011-03-29T15:22:38Z</time>
      </trkpt>
      <trkpt lat="46.86757" lon="5.38229">
        <ele>195.284912</ele>
        <time>2011-03-29T15:22:42Z</time>
      </trkpt>
      <trkpt lat="46.86685" lon="5.38254">
        <ele>196.726929</ele>
        <time>2011-03-29T15:22:54Z</time>
      </trkpt>
      <trkpt lat="46.86674" lon="5.38255">
        <ele>197.688232</ele>
        <time>2011-03-29T15:22:56Z</time>
      </trkpt>
      <trkpt lat="46.86652" lon="5.38258">
        <ele>199.61084</ele>
        <time>2011-03-29T15:23:01Z</time>
      </trkpt>
      <trkpt lat="46.86643" lon="5.3826">
        <ele>200.091675</ele>
        <time>2011-03-29T15:23:03Z</time>
      </trkpt>
      <trkpt lat="46.8662" lon="5.38274">
        <ele>201.533569</ele>
        <time>2011-03-29T15:23:08Z</time>
      </trkpt>
      <trkpt lat="46.86568" lon="5.38343">
        <ele>202.975464</ele>
        <time>2011-03-29T15:23:21Z</time>
      </trkpt>
      <trkpt lat="46.86509" lon="5.38451">
        <ele>203.456177</ele>
        <time>2011-03-29T15:23:42Z</time>
      </trkpt>
      <trkpt lat="46.86506" lon="5.38455">
        <ele>203.456177</ele>
        <time>2011-03-29T15:23:44Z</time>
      </trkpt>
      <trkpt lat="46.86521" lon="5.38484">
        <ele>203.456177</ele>
        <time>2011-03-29T15:23:55Z</time>
      </trkpt>
      <trkpt lat="46.86567" lon="5.38533">
        <ele>203.456177</ele>
        <time>2011-03-29T15:24:09Z</time>
      </trkpt>
      <trkpt lat="46.86586" lon="5.38564">
        <ele>202.975464</ele>
        <time>2011-03-29T15:24:15Z</time>
      </trkpt>
      <trkpt lat="46.86596" lon="5.38614">
        <ele>203.456177</ele>
        <time>2011-03-29T15:24:22Z</time>
      </trkpt>
      <trkpt lat="46.8658" lon="5.38703">
        <ele>202.975464</ele>
        <time>2011-03-29T15:24:33Z</time>
      </trkpt>
      <trkpt lat="46.86602" lon="5.38768">
        <ele>202.975464</ele>
        <time>2011-03-29T15:24:42Z</time>
      </trkpt>
      <trkpt lat="46.86689" lon="5.38814">
        <ele>202.975464</ele>
        <time>2011-03-29T15:24:57Z</time>
      </trkpt>
      <trkpt lat="46.86858" lon="5.38858">
        <ele>200.572266</ele>
        <time>2011-03-29T15:25:22Z</time>
      </trkpt>
      <trkpt lat="46.86979" lon="5.38911">
        <ele>202.014282</ele>
        <time>2011-03-29T15:25:42Z</time>
      </trkpt>
      <trkpt lat="46.8704" lon="5.3895">
        <ele>202.975464</ele>
        <time>2011-03-29T15:25:53Z</time>
      </trkpt>
      <trkpt lat="46.87061" lon="5.38982">
        <ele>203.456177</ele>
        <time>2011-03-29T15:25:58Z</time>
      </trkpt>
      <trkpt lat="46.87107" lon="5.39131">
        <ele>200.091675</ele>
        <time>2011-03-29T15:26:14Z</time>
      </trkpt>
      <trkpt lat="46.87121" lon="5.39271">
        <ele>197.20752</ele>
        <time>2011-03-29T15:26:25Z</time>
      </trkpt>
      <trkpt lat="46.87118" lon="5.39373">
        <ele>194.804321</ele>
        <time>2011-03-29T15:26:33Z</time>
      </trkpt>
      <trkpt lat="46.87145" lon="5.39548">
        <ele>193.362305</ele>
        <time>2011-03-29T15:26:48Z</time>
      </trkpt>
      <trkpt lat="46.87218" lon="5.3971">
        <ele>193.362305</ele>
        <time>2011-03-29T15:27:07Z</time>
      </trkpt>
      <trkpt lat="46.87287" lon="5.39809">
        <ele>194.804321</ele>
        <time>2011-03-29T15:27:22Z</time>
      </trkpt>
      <trkpt lat="46.87311" lon="5.39835">
        <ele>195.765625</ele>
        <time>2011-03-29T15:27:27Z</time>
      </trkpt>
      <trkpt lat="46.87378" lon="5.39874">
        <ele>198.649536</ele>
        <time>2011-03-29T15:27:39Z</time>
      </trkpt>
      <trkpt lat="46.87398" lon="5.39932">
        <ele>201.052856</ele>
        <time>2011-03-29T15:27:48Z</time>
      </trkpt>
      <trkpt lat="46.87396" lon="5.39938">
        <ele>201.533569</ele>
        <time>2011-03-29T15:27:49Z</time>
      </trkpt>
      <trkpt lat="46.87377" lon="5.39999">
        <ele>201.533569</ele>
        <time>2011-03-29T15:28:04Z</time>
      </trkpt>
      <trkpt lat="46.87362" lon="5.40063">
        <ele>201.533569</ele>
        <time>2011-03-29T15:28:22Z</time>
      </trkpt>
      <trkpt lat="46.87344" lon="5.40182">
        <ele>199.61084</ele>
        <time>2011-03-29T15:28:40Z</time>
      </trkpt>
      <trkpt lat="46.87317" lon="5.40243">
        <ele>198.649536</ele>
        <time>2011-03-29T15:28:49Z</time>
      </trkpt>
      <trkpt lat="46.8731" lon="5.40301">
        <ele>197.20752</ele>
        <time>2011-03-29T15:28:55Z</time>
      </trkpt>
      <trkpt lat="46.8731" lon="5.40395">
        <ele>194.32373</ele>
        <time>2011-03-29T15:29:02Z</time>
      </trkpt>
      <trkpt lat="46.87296" lon="5.40447">
        <ele>193.362305</ele>
        <time>2011-03-29T15:29:06Z</time>
      </trkpt>
      <trkpt lat="46.87282" lon="5.40478">
        <ele>191.439575</ele>
        <time>2011-03-29T15:29:09Z</time>
      </trkpt>
      <trkpt lat="46.87228" lon="5.40594">
        <ele>190.478394</ele>
        <time>2011-03-29T15:29:22Z</time>
      </trkpt>
      <trkpt lat="46.87181" lon="5.40689">
        <ele>191.920288</ele>
        <time>2011-03-29T15:29:34Z</time>
      </trkpt>
      <trkpt lat="46.87174" lon="5.4074">
        <ele>191.920288</ele>
        <time>2011-03-29T15:29:40Z</time>
      </trkpt>
      <trkpt lat="46.87182" lon="5.40841">
        <ele>195.765625</ele>
        <time>2011-03-29T15:29:53Z</time>
      </trkpt>
      <trkpt lat="46.8718" lon="5.40864">
        <ele>196.726929</ele>
        <time>2011-03-29T15:29:56Z</time>
      </trkpt>
      <trkpt lat="46.87142" lon="5.40948">
        <ele>200.572266</ele>
        <time>2011-03-29T15:30:10Z</time>
      </trkpt>
      <trkpt lat="46.87118" lon="5.40976">
        <ele>202.014282</ele>
        <time>2011-03-29T15:30:16Z</time>
      </trkpt>
      <trkpt lat="46.87109" lon="5.40995">
        <ele>202.014282</ele>
        <time>2011-03-29T15:30:19Z</time>
      </trkpt>
      <trkpt lat="46.87106" lon="5.41059">
        <ele>201.052856</ele>
        <time>2011-03-29T15:30:27Z</time>
      </trkpt>
      <trkpt lat="46.87134" lon="5.41226">
        <ele>201.533569</ele>
        <time>2011-03-29T15:30:47Z</time>
      </trkpt>
      <trkpt lat="46.87121" lon="5.41386">
        <ele>199.130127</ele>
        <time>2011-03-29T15:31:04Z</time>
      </trkpt>
      <trkpt lat="46.87132" lon="5.41501">
        <ele>199.61084</ele>
        <time>2011-03-29T15:31:16Z</time>
      </trkpt>
      <trkpt lat="46.87132" lon="5.41541">
        <ele>199.61084</ele>
        <time>2011-03-29T15:31:21Z</time>
      </trkpt>
      <trkpt lat="46.87113" lon="5.41636">
        <ele>196.726929</ele>
        <time>2011-03-29T15:31:37Z</time>
      </trkpt>
      <trkpt lat="46.8711" lon="5.41646">
        <ele>196.726929</ele>
        <time>2011-03-29T15:31:39Z</time>
      </trkpt>
      <trkpt lat="46.87066" lon="5.41726">
        <ele>194.804321</ele>
        <time>2011-03-29T15:31:53Z</time>
      </trkpt>
      <trkpt lat="46.87036" lon="5.41867">
        <ele>194.804321</ele>
        <time>2011-03-29T15:32:13Z</time>
      </trkpt>
      <trkpt lat="46.87005" lon="5.42059">
        <ele>197.20752</ele>
        <time>2011-03-29T15:32:39Z</time>
      </trkpt>
      <trkpt lat="46.86998" lon="5.42167">
        <ele>200.572266</ele>
        <time>2011-03-29T15:32:54Z</time>
      </trkpt>
      <trkpt lat="46.86999" lon="5.4225">
        <ele>203.456177</ele>
        <time>2011-03-29T15:33:06Z</time>
      </trkpt>
      <trkpt lat="46.87006" lon="5.4239">
        <ele>206.340088</ele>
        <time>2011-03-29T15:33:26Z</time>
      </trkpt>
      <trkpt lat="46.87014" lon="5.42526">
        <ele>206.820679</ele>
        <time>2011-03-29T15:33:46Z</time>
      </trkpt>
      <trkpt lat="46.87019" lon="5.4264">
        <ele>207.301392</ele>
        <time>2011-03-29T15:34:02Z</time>
      </trkpt>
      <trkpt lat="46.87025" lon="5.42773">
        <ele>207.301392</ele>
        <time>2011-03-29T15:34:20Z</time>
      </trkpt>
      <trkpt lat="46.8703" lon="5.42798">
        <ele>207.301392</ele>
        <time>2011-03-29T15:34:24Z</time>
      </trkpt>
      <trkpt lat="46.87044" lon="5.42841">
        <ele>207.301392</ele>
        <time>2011-03-29T15:34:31Z</time>
      </trkpt>
      <trkpt lat="46.87101" lon="5.42928">
        <ele>206.820679</ele>
        <time>2011-03-29T15:34:49Z</time>
      </trkpt>
      <trkpt lat="46.8712" lon="5.42962">
        <ele>206.340088</ele>
        <time>2011-03-29T15:35:01Z</time>
      </trkpt>
      <trkpt lat="46.87122" lon="5.42965">
        <ele>205.859497</ele>
        <time>2011-03-29T15:35:17Z</time>
      </trkpt>
      <trkpt lat="46.87119" lon="5.42968">
        <ele>205.859497</ele>
        <time>2011-03-29T15:35:53Z</time>
      </trkpt>
      <trkpt lat="46.87119" lon="5.42967">
        <ele>205.859497</ele>
        <time>2011-03-29T15:36:50Z</time>
      </trkpt>
      <trkpt lat="46.87113" lon="5.42973">
        <ele>205.859497</ele>
        <time>2011-03-29T15:37:22Z</time>
      </trkpt>
      <trkpt lat="46.8711" lon="5.42973">
        <ele>205.859497</ele>
        <time>2011-03-29T15:37:43Z</time>
      </trkpt>
      <trkpt lat="46.8711" lon="5.42973">
        <ele>205.859497</ele>
        <time>2011-03-29T15:37:45Z</time>
      </trkpt>
      <trkpt lat="46.87108" lon="5.42974">
        <ele>205.378784</ele>
        <time>2011-03-29T15:37:59Z</time>
      </trkpt>
      <trkpt lat="46.871" lon="5.42976">
        <ele>205.859497</ele>
        <time>2011-03-29T15:38:25Z</time>
      </trkpt>
      <trkpt lat="46.87106" lon="5.42979">
        <ele>205.859497</ele>
        <time>2011-03-29T15:39:25Z</time>
      </trkpt>
      <trkpt lat="46.87111" lon="5.42987">
        <ele>205.859497</ele>
        <time>2011-03-29T15:39:46Z</time>
      </trkpt>
      <trkpt lat="46.87115" lon="5.42974">
        <ele>206.340088</ele>
        <time>2011-03-29T15:40:08Z</time>
      </trkpt>
      <trkpt lat="46.87117" lon="5.42973">
        <ele>207.301392</ele>
        <time>2011-03-29T15:44:03Z</time>
      </trkpt>
      <trkpt lat="46.87123" lon="5.42975">
        <ele>207.301392</ele>
        <time>2011-03-29T15:44:08Z</time>
      </trkpt>
      <trkpt lat="46.87128" lon="5.42983">
        <ele>207.301392</ele>
        <time>2011-03-29T15:44:13Z</time>
      </trkpt>
      <trkpt lat="46.87141" lon="5.4299">
        <ele>207.301392</ele>
        <time>2011-03-29T15:44:19Z</time>
      </trkpt>
      <trkpt lat="46.87157" lon="5.43009">
        <ele>207.782104</ele>
        <time>2011-03-29T15:44:29Z</time>
      </trkpt>
      <trkpt lat="46.87163" lon="5.43007">
        <ele>207.782104</ele>
        <time>2011-03-29T15:44:31Z</time>
      </trkpt>
      <trkpt lat="46.87215" lon="5.43007">
        <ele>208.743408</ele>
        <time>2011-03-29T15:44:48Z</time>
      </trkpt>
      <trkpt lat="46.87253" lon="5.4306">
        <ele>209.704834</ele>
        <time>2011-03-29T15:45:02Z</time>
      </trkpt>
      <trkpt lat="46.87271" lon="5.4309">
        <ele>209.224121</ele>
        <time>2011-03-29T15:45:09Z</time>
      </trkpt>
      <trkpt lat="46.87286" lon="5.43112">
        <ele>209.704834</ele>
        <time>2011-03-29T15:45:14Z</time>
      </trkpt>
      <trkpt lat="46.87317" lon="5.43211">
        <ele>209.704834</ele>
        <time>2011-03-29T15:45:31Z</time>
      </trkpt>
      <trkpt lat="46.8733" lon="5.43272">
        <ele>210.185425</ele>
        <time>2011-03-29T15:45:40Z</time>
      </trkpt>
      <trkpt lat="46.87354" lon="5.43328">
        <ele>210.185425</ele>
        <time>2011-03-29T15:45:49Z</time>
      </trkpt>
      <trkpt lat="46.87404" lon="5.43356">
        <ele>210.666016</ele>
        <time>2011-03-29T15:46:01Z</time>
      </trkpt>
      <trkpt lat="46.87418" lon="5.4335">
        <ele>210.666016</ele>
        <time>2011-03-29T15:46:04Z</time>
      </trkpt>
      <trkpt lat="46.87431" lon="5.43341">
        <ele>210.666016</ele>
        <time>2011-03-29T15:46:07Z</time>
      </trkpt>
      <trkpt lat="46.87451" lon="5.43337">
        <ele>210.666016</ele>
        <time>2011-03-29T15:46:11Z</time>
      </trkpt>
      <trkpt lat="46.87481" lon="5.43346">
        <ele>210.666016</ele>
        <time>2011-03-29T15:46:17Z</time>
      </trkpt>
      <trkpt lat="46.87566" lon="5.4341">
        <ele>211.627441</ele>
        <time>2011-03-29T15:46:35Z</time>
      </trkpt>
      <trkpt lat="46.87695" lon="5.43462">
        <ele>212.108032</ele>
        <time>2011-03-29T15:46:59Z</time>
      </trkpt>
      <trkpt lat="46.8782" lon="5.43513">
        <ele>213.069336</ele>
        <time>2011-03-29T15:47:22Z</time>
      </trkpt>
      <trkpt lat="46.87904" lon="5.43546">
        <ele>213.069336</ele>
        <time>2011-03-29T15:47:37Z</time>
      </trkpt>
      <trkpt lat="46.87931" lon="5.43589">
        <ele>213.550049</ele>
        <time>2011-03-29T15:47:44Z</time>
      </trkpt>
      <trkpt lat="46.87935" lon="5.43605">
        <ele>213.069336</ele>
        <time>2011-03-29T15:47:46Z</time>
      </trkpt>
      <trkpt lat="46.87978" lon="5.43754">
        <ele>212.108032</ele>
        <time>2011-03-29T15:48:03Z</time>
      </trkpt>
      <trkpt lat="46.87992" lon="5.43775">
        <ele>211.627441</ele>
        <time>2011-03-29T15:48:06Z</time>
      </trkpt>
      <trkpt lat="46.88042" lon="5.43813">
        <ele>210.666016</ele>
        <time>2011-03-29T15:48:15Z</time>
      </trkpt>
      <trkpt lat="46.88106" lon="5.43928">
        <ele>210.185425</ele>
        <time>2011-03-29T15:48:31Z</time>
      </trkpt>
      <trkpt lat="46.88146" lon="5.44022">
        <ele>209.224121</ele>
        <time>2011-03-29T15:48:42Z</time>
      </trkpt>
      <trkpt lat="46.88166" lon="5.44052">
        <ele>208.743408</ele>
        <time>2011-03-29T15:48:46Z</time>
      </trkpt>
      <trkpt lat="46.883" lon="5.44183">
        <ele>210.185425</ele>
        <time>2011-03-29T15:49:11Z</time>
      </trkpt>
      <trkpt lat="46.88388" lon="5.44263">
        <ele>208.743408</ele>
        <time>2011-03-29T15:49:25Z</time>
      </trkpt>
      <trkpt lat="46.8846" lon="5.44316">
        <ele>208.262817</ele>
        <time>2011-03-29T15:49:36Z</time>
      </trkpt>
      <trkpt lat="46.88536" lon="5.44426">
        <ele>206.820679</ele>
        <time>2011-03-29T15:49:50Z</time>
      </trkpt>
      <trkpt lat="46.88627" lon="5.44475">
        <ele>204.898071</ele>
        <time>2011-03-29T15:50:02Z</time>
      </trkpt>
      <trkpt lat="46.88666" lon="5.44487">
        <ele>205.378784</ele>
        <time>2011-03-29T15:50:07Z</time>
      </trkpt>
      <trkpt lat="46.88763" lon="5.44489">
        <ele>205.859497</ele>
        <time>2011-03-29T15:50:20Z</time>
      </trkpt>
      <trkpt lat="46.8879" lon="5.44543">
        <ele>205.378784</ele>
        <time>2011-03-29T15:50:27Z</time>
      </trkpt>
      <trkpt lat="46.88777" lon="5.44573">
        <ele>205.378784</ele>
        <time>2011-03-29T15:50:30Z</time>
      </trkpt>
      <trkpt lat="46.88694" lon="5.44729">
        <ele>202.014282</ele>
        <time>2011-03-29T15:50:47Z</time>
      </trkpt>
      <trkpt lat="46.8867" lon="5.44759">
        <ele>201.052856</ele>
        <time>2011-03-29T15:50:51Z</time>
      </trkpt>
      <trkpt lat="46.88583" lon="5.44852">
        <ele>202.014282</ele>
        <time>2011-03-29T15:51:06Z</time>
      </trkpt>
      <trkpt lat="46.88573" lon="5.44866">
        <ele>202.014282</ele>
        <time>2011-03-29T15:51:08Z</time>
      </trkpt>
      <trkpt lat="46.88532" lon="5.44982">
        <ele>202.494873</ele>
        <time>2011-03-29T15:51:21Z</time>
      </trkpt>
      <trkpt lat="46.885" lon="5.45105">
        <ele>200.572266</ele>
        <time>2011-03-29T15:51:33Z</time>
      </trkpt>
      <trkpt lat="46.88504" lon="5.45182">
        <ele>198.168945</ele>
        <time>2011-03-29T15:51:40Z</time>
      </trkpt>
      <trkpt lat="46.8859" lon="5.45366">
        <ele>200.091675</ele>
        <time>2011-03-29T15:52:02Z</time>
      </trkpt>
      <trkpt lat="46.88661" lon="5.45529">
        <ele>202.975464</ele>
        <time>2011-03-29T15:52:23Z</time>
      </trkpt>
      <trkpt lat="46.88697" lon="5.45669">
        <ele>203.93689</ele>
        <time>2011-03-29T15:52:40Z</time>
      </trkpt>
      <trkpt lat="46.88699" lon="5.45694">
        <ele>204.41748</ele>
        <time>2011-03-29T15:52:43Z</time>
      </trkpt>
      <trkpt lat="46.88696" lon="5.45732">
        <ele>204.898071</ele>
        <time>2011-03-29T15:52:48Z</time>
      </trkpt>
      <trkpt lat="46.88708" lon="5.45768">
        <ele>204.898071</ele>
        <time>2011-03-29T15:52:54Z</time>
      </trkpt>
      <trkpt lat="46.88729" lon="5.45782">
        <ele>205.378784</ele>
        <time>2011-03-29T15:52:59Z</time>
      </trkpt>
      <trkpt lat="46.88753" lon="5.45794">
        <ele>205.859497</ele>
        <time>2011-03-29T15:53:05Z</time>
      </trkpt>
      <trkpt lat="46.88863" lon="5.45827">
        <ele>208.743408</ele>
        <time>2011-03-29T15:53:27Z</time>
      </trkpt>
      <trkpt lat="46.88966" lon="5.45785">
        <ele>209.224121</ele>
        <time>2011-03-29T15:53:45Z</time>
      </trkpt>
      <trkpt lat="46.89026" lon="5.45761">
        <ele>212.588623</ele>
        <time>2011-03-29T15:53:55Z</time>
      </trkpt>
      <trkpt lat="46.89093" lon="5.45734">
        <ele>214.991943</ele>
        <time>2011-03-29T15:54:08Z</time>
      </trkpt>
      <trkpt lat="46.89153" lon="5.45711">
        <ele>218.356567</ele>
        <time>2011-03-29T15:54:22Z</time>
      </trkpt>
      <trkpt lat="46.89228" lon="5.4568">
        <ele>218.83728</ele>
        <time>2011-03-29T15:54:38Z</time>
      </trkpt>
      <trkpt lat="46.89333" lon="5.45636">
        <ele>218.356567</ele>
        <time>2011-03-29T15:54:57Z</time>
      </trkpt>
      <trkpt lat="46.89409" lon="5.456">
        <ele>214.991943</ele>
        <time>2011-03-29T15:55:08Z</time>
      </trkpt>
      <trkpt lat="46.89433" lon="5.45584">
        <ele>213.550049</ele>
        <time>2011-03-29T15:55:11Z</time>
      </trkpt>
      <trkpt lat="46.89449" lon="5.45573">
        <ele>212.588623</ele>
        <time>2011-03-29T15:55:13Z</time>
      </trkpt>
      <trkpt lat="46.89527" lon="5.45516">
        <ele>210.185425</ele>
        <time>2011-03-29T15:55:22Z</time>
      </trkpt>
      <trkpt lat="46.89569" lon="5.45485">
        <ele>208.743408</ele>
        <time>2011-03-29T15:55:27Z</time>
      </trkpt>
      <trkpt lat="46.89679" lon="5.45405">
        <ele>207.782104</ele>
        <time>2011-03-29T15:55:44Z</time>
      </trkpt>
      <trkpt lat="46.89784" lon="5.45353">
        <ele>206.340088</ele>
        <time>2011-03-29T15:55:58Z</time>
      </trkpt>
      <trkpt lat="46.89814" lon="5.4536">
        <ele>205.859497</ele>
        <time>2011-03-29T15:56:02Z</time>
      </trkpt>
      <trkpt lat="46.89901" lon="5.45434">
        <ele>205.378784</ele>
        <time>2011-03-29T15:56:17Z</time>
      </trkpt>
      <trkpt lat="46.89943" lon="5.45464">
        <ele>204.898071</ele>
        <time>2011-03-29T15:56:23Z</time>
      </trkpt>
      <trkpt lat="46.89975" lon="5.45468">
        <ele>204.41748</ele>
        <time>2011-03-29T15:56:27Z</time>
      </trkpt>
      <trkpt lat="46.90086" lon="5.45427">
        <ele>203.93689</ele>
        <time>2011-03-29T15:56:43Z</time>
      </trkpt>
      <trkpt lat="46.90134" lon="5.45379">
        <ele>207.301392</ele>
        <time>2011-03-29T15:56:53Z</time>
      </trkpt>
      <trkpt lat="46.90151" lon="5.45362">
        <ele>209.224121</ele>
        <time>2011-03-29T15:56:57Z</time>
      </trkpt>
      <trkpt lat="46.90184" lon="5.45334">
        <ele>211.627441</ele>
        <time>2011-03-29T15:57:05Z</time>
      </trkpt>
      <trkpt lat="46.90192" lon="5.45324">
        <ele>213.069336</ele>
        <time>2011-03-29T15:57:07Z</time>
      </trkpt>
      <trkpt lat="46.90199" lon="5.4531">
        <ele>213.550049</ele>
        <time>2011-03-29T15:57:09Z</time>
      </trkpt>
      <trkpt lat="46.90219" lon="5.45294">
        <ele>215.953247</ele>
        <time>2011-03-29T15:57:14Z</time>
      </trkpt>
      <trkpt lat="46.9023" lon="5.45313">
        <ele>216.43396</ele>
        <time>2011-03-29T15:57:17Z</time>
      </trkpt>
      <trkpt lat="46.90301" lon="5.45468">
        <ele>217.875977</ele>
        <time>2011-03-29T15:57:40Z</time>
      </trkpt>
      <trkpt lat="46.90347" lon="5.45577">
        <ele>217.395386</ele>
        <time>2011-03-29T15:57:59Z</time>
      </trkpt>
      <trkpt lat="46.90374" lon="5.45629">
        <ele>217.395386</ele>
        <time>2011-03-29T15:58:19Z</time>
      </trkpt>
      <trkpt lat="46.90414" lon="5.45676">
        <ele>217.875977</ele>
        <time>2011-03-29T15:58:33Z</time>
      </trkpt>
      <trkpt lat="46.90488" lon="5.45753">
        <ele>218.83728</ele>
        <time>2011-03-29T15:58:55Z</time>
      </trkpt>
      <trkpt lat="46.90496" lon="5.45761">
        <ele>218.83728</ele>
        <time>2011-03-29T15:58:57Z</time>
      </trkpt>
      <trkpt lat="46.90527" lon="5.45796">
        <ele>218.356567</ele>
        <time>2011-03-29T15:59:05Z</time>
      </trkpt>
      <trkpt lat="46.90542" lon="5.4583">
        <ele>217.875977</ele>
        <time>2011-03-29T15:59:10Z</time>
      </trkpt>
      <trkpt lat="46.90558" lon="5.45923">
        <ele>218.83728</ele>
        <time>2011-03-29T15:59:22Z</time>
      </trkpt>
      <trkpt lat="46.90557" lon="5.46052">
        <ele>218.356567</ele>
        <time>2011-03-29T15:59:38Z</time>
      </trkpt>
      <trkpt lat="46.90561" lon="5.46107">
        <ele>217.395386</ele>
        <time>2011-03-29T15:59:44Z</time>
      </trkpt>
      <trkpt lat="46.9057" lon="5.4614">
        <ele>216.914673</ele>
        <time>2011-03-29T15:59:48Z</time>
      </trkpt>
      <trkpt lat="46.90635" lon="5.46247">
        <ele>217.875977</ele>
        <time>2011-03-29T16:00:05Z</time>
      </trkpt>
      <trkpt lat="46.9069" lon="5.46312">
        <ele>221.240601</ele>
        <time>2011-03-29T16:00:18Z</time>
      </trkpt>
      <trkpt lat="46.90793" lon="5.46419">
        <ele>222.201782</ele>
        <time>2011-03-29T16:00:40Z</time>
      </trkpt>
      <trkpt lat="46.90905" lon="5.46529">
        <ele>221.721191</ele>
        <time>2011-03-29T16:01:01Z</time>
      </trkpt>
      <trkpt lat="46.90941" lon="5.46538">
        <ele>221.240601</ele>
        <time>2011-03-29T16:01:07Z</time>
      </trkpt>
      <trkpt lat="46.90973" lon="5.46555">
        <ele>219.798584</ele>
        <time>2011-03-29T16:01:13Z</time>
      </trkpt>
      <trkpt lat="46.90982" lon="5.46568">
        <ele>219.798584</ele>
        <time>2011-03-29T16:01:15Z</time>
      </trkpt>
      <trkpt lat="46.91016" lon="5.46575">
        <ele>219.798584</ele>
        <time>2011-03-29T16:01:20Z</time>
      </trkpt>
      <trkpt lat="46.91046" lon="5.46593">
        <ele>218.356567</ele>
        <time>2011-03-29T16:01:24Z</time>
      </trkpt>
      <trkpt lat="46.91127" lon="5.46689">
        <ele>217.395386</ele>
        <time>2011-03-29T16:01:38Z</time>
      </trkpt>
      <trkpt lat="46.91138" lon="5.46725">
        <ele>216.914673</ele>
        <time>2011-03-29T16:01:42Z</time>
      </trkpt>
      <trkpt lat="46.91141" lon="5.46743">
        <ele>217.395386</ele>
        <time>2011-03-29T16:01:44Z</time>
      </trkpt>
      <trkpt lat="46.91152" lon="5.46773">
        <ele>217.875977</ele>
        <time>2011-03-29T16:01:48Z</time>
      </trkpt>
      <trkpt lat="46.9124" lon="5.46882">
        <ele>216.914673</ele>
        <time>2011-03-29T16:02:04Z</time>
      </trkpt>
      <trkpt lat="46.91264" lon="5.46911">
        <ele>215.472656</ele>
        <time>2011-03-29T16:02:08Z</time>
      </trkpt>
      <trkpt lat="46.91306" lon="5.4696">
        <ele>212.108032</ele>
        <time>2011-03-29T16:02:14Z</time>
      </trkpt>
      <trkpt lat="46.91342" lon="5.47029">
        <ele>209.704834</ele>
        <time>2011-03-29T16:02:20Z</time>
      </trkpt>
      <trkpt lat="46.914" lon="5.47154">
        <ele>208.262817</ele>
        <time>2011-03-29T16:02:32Z</time>
      </trkpt>
      <trkpt lat="46.91477" lon="5.47273">
        <ele>207.301392</ele>
        <time>2011-03-29T16:02:47Z</time>
      </trkpt>
      <trkpt lat="46.91547" lon="5.47282">
        <ele>206.340088</ele>
        <time>2011-03-29T16:02:56Z</time>
      </trkpt>
      <trkpt lat="46.91606" lon="5.47236">
        <ele>205.859497</ele>
        <time>2011-03-29T16:03:05Z</time>
      </trkpt>
      <trkpt lat="46.91626" lon="5.47217">
        <ele>206.340088</ele>
        <time>2011-03-29T16:03:09Z</time>
      </trkpt>
      <trkpt lat="46.91646" lon="5.47189">
        <ele>208.262817</ele>
        <time>2011-03-29T16:03:14Z</time>
      </trkpt>
      <trkpt lat="46.91655" lon="5.47173">
        <ele>209.224121</ele>
        <time>2011-03-29T16:03:17Z</time>
      </trkpt>
      <trkpt lat="46.91662" lon="5.47159">
        <ele>210.185425</ele>
        <time>2011-03-29T16:03:20Z</time>
      </trkpt>
      <trkpt lat="46.91683" lon="5.47117">
        <ele>213.550049</ele>
        <time>2011-03-29T16:03:27Z</time>
      </trkpt>
      <trkpt lat="46.91707" lon="5.47053">
        <ele>215.953247</ele>
        <time>2011-03-29T16:03:39Z</time>
      </trkpt>
      <trkpt lat="46.91705" lon="5.47003">
        <ele>215.472656</ele>
        <time>2011-03-29T16:03:50Z</time>
      </trkpt>
      <trkpt lat="46.91665" lon="5.46853">
        <ele>215.472656</ele>
        <time>2011-03-29T16:04:12Z</time>
      </trkpt>
      <trkpt lat="46.91634" lon="5.46737">
        <ele>215.472656</ele>
        <time>2011-03-29T16:04:29Z</time>
      </trkpt>
      <trkpt lat="46.91586" lon="5.4653">
        <ele>213.550049</ele>
        <time>2011-03-29T16:04:52Z</time>
      </trkpt>
      <trkpt lat="46.91578" lon="5.46359">
        <ele>210.666016</ele>
        <time>2011-03-29T16:05:07Z</time>
      </trkpt>
      <trkpt lat="46.91568" lon="5.46228">
        <ele>207.301392</ele>
        <time>2011-03-29T16:05:17Z</time>
      </trkpt>
      <trkpt lat="46.91565" lon="5.46215">
        <ele>207.301392</ele>
        <time>2011-03-29T16:05:18Z</time>
      </trkpt>
      <trkpt lat="46.9153" lon="5.46083">
        <ele>208.262817</ele>
        <time>2011-03-29T16:05:31Z</time>
      </trkpt>
      <trkpt lat="46.91508" lon="5.46021">
        <ele>207.301392</ele>
        <time>2011-03-29T16:05:38Z</time>
      </trkpt>
      <trkpt lat="46.91478" lon="5.45937">
        <ele>210.666016</ele>
        <time>2011-03-29T16:05:48Z</time>
      </trkpt>
      <trkpt lat="46.91475" lon="5.45882">
        <ele>214.03064</ele>
        <time>2011-03-29T16:05:54Z</time>
      </trkpt>
      <trkpt lat="46.91477" lon="5.45873">
        <ele>214.51123</ele>
        <time>2011-03-29T16:05:55Z</time>
      </trkpt>
      <trkpt lat="46.91508" lon="5.45766">
        <ele>216.43396</ele>
        <time>2011-03-29T16:06:08Z</time>
      </trkpt>
      <trkpt lat="46.91538" lon="5.45711">
        <ele>216.43396</ele>
        <time>2011-03-29T16:06:22Z</time>
      </trkpt>
      <trkpt lat="46.91598" lon="5.45635">
        <ele>217.875977</ele>
        <time>2011-03-29T16:06:40Z</time>
      </trkpt>
      <trkpt lat="46.91677" lon="5.45476">
        <ele>218.83728</ele>
        <time>2011-03-29T16:07:04Z</time>
      </trkpt>
      <trkpt lat="46.91736" lon="5.45357">
        <ele>217.875977</ele>
        <time>2011-03-29T16:07:21Z</time>
      </trkpt>
      <trkpt lat="46.91816" lon="5.4526">
        <ele>216.914673</ele>
        <time>2011-03-29T16:07:36Z</time>
      </trkpt>
      <trkpt lat="46.91892" lon="5.45156">
        <ele>217.395386</ele>
        <time>2011-03-29T16:07:51Z</time>
      </trkpt>
      <trkpt lat="46.92018" lon="5.45049">
        <ele>219.317993</ele>
        <time>2011-03-29T16:08:11Z</time>
      </trkpt>
      <trkpt lat="46.92095" lon="5.44985">
        <ele>219.317993</ele>
        <time>2011-03-29T16:08:24Z</time>
      </trkpt>
      <trkpt lat="46.92223" lon="5.44899">
        <ele>219.317993</ele>
        <time>2011-03-29T16:08:45Z</time>
      </trkpt>
      <trkpt lat="46.92308" lon="5.44842">
        <ele>220.279175</ele>
        <time>2011-03-29T16:08:59Z</time>
      </trkpt>
      <trkpt lat="46.92363" lon="5.44765">
        <ele>220.279175</ele>
        <time>2011-03-29T16:09:12Z</time>
      </trkpt>
      <trkpt lat="46.92398" lon="5.44709">
        <ele>219.798584</ele>
        <time>2011-03-29T16:09:28Z</time>
      </trkpt>
      <trkpt lat="46.92425" lon="5.44669">
        <ele>219.798584</ele>
        <time>2011-03-29T16:09:44Z</time>
      </trkpt>
      <trkpt lat="46.92425" lon="5.44666">
        <ele>219.317993</ele>
        <time>2011-03-29T16:09:46Z</time>
      </trkpt>
      <trkpt lat="46.92409" lon="5.44687">
        <ele>219.317993</ele>
        <time>2011-03-29T16:09:56Z</time>
      </trkpt>
      <trkpt lat="46.92412" lon="5.44686">
        <ele>220.279175</ele>
        <time>2011-03-29T16:10:00Z</time>
      </trkpt>
      <trkpt lat="46.92457" lon="5.44616">
        <ele>219.798584</ele>
        <time>2011-03-29T16:10:15Z</time>
      </trkpt>
      <trkpt lat="46.92476" lon="5.44582">
        <ele>219.798584</ele>
        <time>2011-03-29T16:10:26Z</time>
      </trkpt>
      <trkpt lat="46.92503" lon="5.44544">
        <ele>219.798584</ele>
        <time>2011-03-29T16:10:41Z</time>
      </trkpt>
      <trkpt lat="46.92542" lon="5.44478">
        <ele>219.317993</ele>
        <time>2011-03-29T16:10:56Z</time>
      </trkpt>
      <trkpt lat="46.926" lon="5.44332">
        <ele>219.317993</ele>
        <time>2011-03-29T16:11:17Z</time>
      </trkpt>
      <trkpt lat="46.92687" lon="5.44104">
        <ele>219.798584</ele>
        <time>2011-03-29T16:11:46Z</time>
      </trkpt>
      <trkpt lat="46.92695" lon="5.44088">
        <ele>219.798584</ele>
        <time>2011-03-29T16:11:48Z</time>
      </trkpt>
      <trkpt lat="46.92736" lon="5.44062">
        <ele>220.279175</ele>
        <time>2011-03-29T16:11:55Z</time>
      </trkpt>
      <trkpt lat="46.92885" lon="5.44065">
        <ele>219.798584</ele>
        <time>2011-03-29T16:12:19Z</time>
      </trkpt>
      <trkpt lat="46.9295" lon="5.44074">
        <ele>218.83728</ele>
        <time>2011-03-29T16:12:29Z</time>
      </trkpt>
      <trkpt lat="46.93028" lon="5.44038">
        <ele>219.317993</ele>
        <time>2011-03-29T16:12:42Z</time>
      </trkpt>
      <trkpt lat="46.93154" lon="5.43987">
        <ele>219.317993</ele>
        <time>2011-03-29T16:13:03Z</time>
      </trkpt>
      <trkpt lat="46.93229" lon="5.43966">
        <ele>218.83728</ele>
        <time>2011-03-29T16:13:16Z</time>
      </trkpt>
      <trkpt lat="46.9325" lon="5.43955">
        <ele>219.317993</ele>
        <time>2011-03-29T16:13:20Z</time>
      </trkpt>
      <trkpt lat="46.93332" lon="5.43896">
        <ele>218.83728</ele>
        <time>2011-03-29T16:13:35Z</time>
      </trkpt>
      <trkpt lat="46.93485" lon="5.43832">
        <ele>219.317993</ele>
        <time>2011-03-29T16:14:00Z</time>
      </trkpt>
      <trkpt lat="46.93596" lon="5.43812">
        <ele>218.83728</ele>
        <time>2011-03-29T16:14:17Z</time>
      </trkpt>
      <trkpt lat="46.93724" lon="5.43824">
        <ele>218.83728</ele>
        <time>2011-03-29T16:14:38Z</time>
      </trkpt>
      <trkpt lat="46.93843" lon="5.43825">
        <ele>218.83728</ele>
        <time>2011-03-29T16:14:58Z</time>
      </trkpt>
      <trkpt lat="46.94001" lon="5.43799">
        <ele>217.395386</ele>
        <time>2011-03-29T16:15:22Z</time>
      </trkpt>
      <trkpt lat="46.94075" lon="5.43764">
        <ele>213.550049</ele>
        <time>2011-03-29T16:15:32Z</time>
      </trkpt>
      <trkpt lat="46.94149" lon="5.43719">
        <ele>212.108032</ele>
        <time>2011-03-29T16:15:42Z</time>
      </trkpt>
      <trkpt lat="46.94166" lon="5.43713">
        <ele>210.666016</ele>
        <time>2011-03-29T16:15:44Z</time>
      </trkpt>
      <trkpt lat="46.94261" lon="5.43696">
        <ele>207.782104</ele>
        <time>2011-03-29T16:15:55Z</time>
      </trkpt>
      <trkpt lat="46.94283" lon="5.43681">
        <ele>209.224121</ele>
        <time>2011-03-29T16:15:58Z</time>
      </trkpt>
      <trkpt lat="46.94361" lon="5.4361">
        <ele>212.108032</ele>
        <time>2011-03-29T16:16:12Z</time>
      </trkpt>
      <trkpt lat="46.94455" lon="5.43531">
        <ele>215.472656</ele>
        <time>2011-03-29T16:16:28Z</time>
      </trkpt>
      <trkpt lat="46.94558" lon="5.43487">
        <ele>214.991943</ele>
        <time>2011-03-29T16:16:46Z</time>
      </trkpt>
      <trkpt lat="46.94602" lon="5.43476">
        <ele>214.03064</ele>
        <time>2011-03-29T16:17:00Z</time>
      </trkpt>
      <trkpt lat="46.94618" lon="5.43471">
        <ele>214.03064</ele>
        <time>2011-03-29T16:17:04Z</time>
      </trkpt>
      <trkpt lat="46.94686" lon="5.43446">
        <ele>215.472656</ele>
        <time>2011-03-29T16:17:19Z</time>
      </trkpt>
      <trkpt lat="46.94785" lon="5.43414">
        <ele>214.51123</ele>
        <time>2011-03-29T16:17:39Z</time>
      </trkpt>
      <trkpt lat="46.94864" lon="5.43367">
        <ele>215.472656</ele>
        <time>2011-03-29T16:17:51Z</time>
      </trkpt>
      <trkpt lat="46.94916" lon="5.43312">
        <ele>213.550049</ele>
        <time>2011-03-29T16:18:00Z</time>
      </trkpt>
      <trkpt lat="46.94944" lon="5.43283">
        <ele>212.108032</ele>
        <time>2011-03-29T16:18:04Z</time>
      </trkpt>
      <trkpt lat="46.94952" lon="5.43276">
        <ele>211.146729</ele>
        <time>2011-03-29T16:18:05Z</time>
      </trkpt>
      <trkpt lat="46.95022" lon="5.43253">
        <ele>207.782104</ele>
        <time>2011-03-29T16:18:13Z</time>
      </trkpt>
      <trkpt lat="46.95064" lon="5.43266">
        <ele>207.301392</ele>
        <time>2011-03-29T16:18:18Z</time>
      </trkpt>
      <trkpt lat="46.95102" lon="5.43268">
        <ele>208.743408</ele>
        <time>2011-03-29T16:18:23Z</time>
      </trkpt>
      <trkpt lat="46.95167" lon="5.43255">
        <ele>212.588623</ele>
        <time>2011-03-29T16:18:33Z</time>
      </trkpt>
      <trkpt lat="46.952" lon="5.43239">
        <ele>214.991943</ele>
        <time>2011-03-29T16:18:39Z</time>
      </trkpt>
      <trkpt lat="46.95261" lon="5.43215">
        <ele>218.356567</ele>
        <time>2011-03-29T16:18:50Z</time>
      </trkpt>
      <trkpt lat="46.95362" lon="5.43168">
        <ele>217.875977</ele>
        <time>2011-03-29T16:19:08Z</time>
      </trkpt>
      <trkpt lat="46.95423" lon="5.43075">
        <ele>216.914673</ele>
        <time>2011-03-29T16:19:22Z</time>
      </trkpt>
      <trkpt lat="46.95538" lon="5.42936">
        <ele>216.43396</ele>
        <time>2011-03-29T16:19:44Z</time>
      </trkpt>
      <trkpt lat="46.95544" lon="5.42933">
        <ele>215.953247</ele>
        <time>2011-03-29T16:19:45Z</time>
      </trkpt>
      <trkpt lat="46.95586" lon="5.42934">
        <ele>215.472656</ele>
        <time>2011-03-29T16:19:51Z</time>
      </trkpt>
      <trkpt lat="46.95658" lon="5.42979">
        <ele>215.472656</ele>
        <time>2011-03-29T16:20:02Z</time>
      </trkpt>
      <trkpt lat="46.95685" lon="5.42973">
        <ele>214.991943</ele>
        <time>2011-03-29T16:20:06Z</time>
      </trkpt>
      <trkpt lat="46.95824" lon="5.42839">
        <ele>212.588623</ele>
        <time>2011-03-29T16:20:29Z</time>
      </trkpt>
      <trkpt lat="46.95912" lon="5.42723">
        <ele>209.704834</ele>
        <time>2011-03-29T16:20:44Z</time>
      </trkpt>
      <trkpt lat="46.95961" lon="5.4266">
        <ele>207.301392</ele>
        <time>2011-03-29T16:20:52Z</time>
      </trkpt>
      <trkpt lat="46.96017" lon="5.42596">
        <ele>203.93689</ele>
        <time>2011-03-29T16:21:00Z</time>
      </trkpt>
      <trkpt lat="46.96041" lon="5.42573">
        <ele>201.533569</ele>
        <time>2011-03-29T16:21:03Z</time>
      </trkpt>
      <trkpt lat="46.96159" lon="5.42484">
        <ele>200.091675</ele>
        <time>2011-03-29T16:21:17Z</time>
      </trkpt>
      <trkpt lat="46.96182" lon="5.42466">
        <ele>200.572266</ele>
        <time>2011-03-29T16:21:20Z</time>
      </trkpt>
      <trkpt lat="46.96208" lon="5.42429">
        <ele>199.61084</ele>
        <time>2011-03-29T16:21:24Z</time>
      </trkpt>
      <trkpt lat="46.96246" lon="5.42368">
        <ele>198.649536</ele>
        <time>2011-03-29T16:21:30Z</time>
      </trkpt>
      <trkpt lat="46.96355" lon="5.42257">
        <ele>198.649536</ele>
        <time>2011-03-29T16:21:43Z</time>
      </trkpt>
      <trkpt lat="46.96406" lon="5.42129">
        <ele>196.246338</ele>
        <time>2011-03-29T16:21:53Z</time>
      </trkpt>
      <trkpt lat="46.96413" lon="5.42086">
        <ele>196.246338</ele>
        <time>2011-03-29T16:21:56Z</time>
      </trkpt>
      <trkpt lat="46.96429" lon="5.4205">
        <ele>194.804321</ele>
        <time>2011-03-29T16:21:59Z</time>
      </trkpt>
      <trkpt lat="46.96454" lon="5.42036">
        <ele>194.32373</ele>
        <time>2011-03-29T16:22:02Z</time>
      </trkpt>
      <trkpt lat="46.96539" lon="5.42054">
        <ele>193.843018</ele>
        <time>2011-03-29T16:22:13Z</time>
      </trkpt>
      <trkpt lat="46.96599" lon="5.42096">
        <ele>194.32373</ele>
        <time>2011-03-29T16:22:26Z</time>
      </trkpt>
      <trkpt lat="46.96616" lon="5.42105">
        <ele>194.804321</ele>
        <time>2011-03-29T16:22:33Z</time>
      </trkpt>
      <trkpt lat="46.96625" lon="5.42091">
        <ele>195.284912</ele>
        <time>2011-03-29T16:22:38Z</time>
      </trkpt>
      <trkpt lat="46.96636" lon="5.41977">
        <ele>195.284912</ele>
        <time>2011-03-29T16:22:55Z</time>
      </trkpt>
      <trkpt lat="46.96658" lon="5.41775">
        <ele>193.362305</ele>
        <time>2011-03-29T16:23:17Z</time>
      </trkpt>
      <trkpt lat="46.96674" lon="5.41618">
        <ele>193.362305</ele>
        <time>2011-03-29T16:23:32Z</time>
      </trkpt>
      <trkpt lat="46.96673" lon="5.41586">
        <ele>193.362305</ele>
        <time>2011-03-29T16:23:36Z</time>
      </trkpt>
      <trkpt lat="46.96681" lon="5.41547">
        <ele>192.881714</ele>
        <time>2011-03-29T16:23:41Z</time>
      </trkpt>
      <trkpt lat="46.9668" lon="5.41515">
        <ele>193.362305</ele>
        <time>2011-03-29T16:23:45Z</time>
      </trkpt>
      <trkpt lat="46.96712" lon="5.4138">
        <ele>191.920288</ele>
        <time>2011-03-29T16:24:01Z</time>
      </trkpt>
      <trkpt lat="46.96751" lon="5.41219">
        <ele>190.958984</ele>
        <time>2011-03-29T16:24:18Z</time>
      </trkpt>
      <trkpt lat="46.96751" lon="5.41061">
        <ele>190.478394</ele>
        <time>2011-03-29T16:24:34Z</time>
      </trkpt>
      <trkpt lat="46.96745" lon="5.40974">
        <ele>190.958984</ele>
        <time>2011-03-29T16:24:43Z</time>
      </trkpt>
      <trkpt lat="46.96749" lon="5.40946">
        <ele>190.958984</ele>
        <time>2011-03-29T16:24:46Z</time>
      </trkpt>
      <trkpt lat="46.96779" lon="5.40817">
        <ele>191.920288</ele>
        <time>2011-03-29T16:25:01Z</time>
      </trkpt>
      <trkpt lat="46.96781" lon="5.40808">
        <ele>191.439575</ele>
        <time>2011-03-29T16:25:02Z</time>
      </trkpt>
      <trkpt lat="46.96819" lon="5.40657">
        <ele>191.920288</ele>
        <time>2011-03-29T16:25:19Z</time>
      </trkpt>
      <trkpt lat="46.96839" lon="5.40597">
        <ele>191.439575</ele>
        <time>2011-03-29T16:25:26Z</time>
      </trkpt>
      <trkpt lat="46.96868" lon="5.40583">
        <ele>191.439575</ele>
        <time>2011-03-29T16:25:31Z</time>
      </trkpt>
      <trkpt lat="46.96891" lon="5.40583">
        <ele>191.439575</ele>
        <time>2011-03-29T16:25:35Z</time>
      </trkpt>
      <trkpt lat="46.96917" lon="5.406">
        <ele>189.997681</ele>
        <time>2011-03-29T16:25:41Z</time>
      </trkpt>
      <trkpt lat="46.96924" lon="5.40611">
        <ele>189.997681</ele>
        <time>2011-03-29T16:25:43Z</time>
      </trkpt>
      <trkpt lat="46.96945" lon="5.40632">
        <ele>189.997681</ele>
        <time>2011-03-29T16:25:48Z</time>
      </trkpt>
      <trkpt lat="46.97034" lon="5.40642">
        <ele>190.478394</ele>
        <time>2011-03-29T16:26:04Z</time>
      </trkpt>
      <trkpt lat="46.97182" lon="5.40641">
        <ele>190.958984</ele>
        <time>2011-03-29T16:26:26Z</time>
      </trkpt>
      <trkpt lat="46.97356" lon="5.40673">
        <ele>190.478394</ele>
        <time>2011-03-29T16:26:51Z</time>
      </trkpt>
      <trkpt lat="46.97554" lon="5.40713">
        <ele>190.958984</ele>
        <time>2011-03-29T16:27:19Z</time>
      </trkpt>
      <trkpt lat="46.97714" lon="5.40743">
        <ele>192.881714</ele>
        <time>2011-03-29T16:27:43Z</time>
      </trkpt>
      <trkpt lat="46.97822" lon="5.40763">
        <ele>193.362305</ele>
        <time>2011-03-29T16:27:58Z</time>
      </trkpt>
      <trkpt lat="46.97829" lon="5.40763">
        <ele>193.362305</ele>
        <time>2011-03-29T16:27:59Z</time>
      </trkpt>
      <trkpt lat="46.97909" lon="5.40723">
        <ele>190.958984</ele>
        <time>2011-03-29T16:28:10Z</time>
      </trkpt>
      <trkpt lat="46.98002" lon="5.40728">
        <ele>191.439575</ele>
        <time>2011-03-29T16:28:22Z</time>
      </trkpt>
      <trkpt lat="46.98172" lon="5.40778">
        <ele>191.920288</ele>
        <time>2011-03-29T16:28:44Z</time>
      </trkpt>
      <trkpt lat="46.98277" lon="5.40822">
        <ele>191.920288</ele>
        <time>2011-03-29T16:28:58Z</time>
      </trkpt>
      <trkpt lat="46.98292" lon="5.40823">
        <ele>191.920288</ele>
        <time>2011-03-29T16:29:00Z</time>
      </trkpt>
      <trkpt lat="46.9833" lon="5.40802">
        <ele>191.439575</ele>
        <time>2011-03-29T16:29:05Z</time>
      </trkpt>
      <trkpt lat="46.98435" lon="5.40646">
        <ele>190.478394</ele>
        <time>2011-03-29T16:29:24Z</time>
      </trkpt>
      <trkpt lat="46.98447" lon="5.4063">
        <ele>189.997681</ele>
        <time>2011-03-29T16:29:26Z</time>
      </trkpt>
      <trkpt lat="46.98529" lon="5.40592">
        <ele>191.439575</ele>
        <time>2011-03-29T16:29:37Z</time>
      </trkpt>
      <trkpt lat="46.98648" lon="5.40574">
        <ele>193.362305</ele>
        <time>2011-03-29T16:29:53Z</time>
      </trkpt>
      <trkpt lat="46.98772" lon="5.40564">
        <ele>193.362305</ele>
        <time>2011-03-29T16:30:10Z</time>
      </trkpt>
      <trkpt lat="46.98817" lon="5.40555">
        <ele>191.920288</ele>
        <time>2011-03-29T16:30:16Z</time>
      </trkpt>
      <trkpt lat="46.98911" lon="5.4057">
        <ele>191.439575</ele>
        <time>2011-03-29T16:30:29Z</time>
      </trkpt>
      <trkpt lat="46.99033" lon="5.40642">
        <ele>192.401123</ele>
        <time>2011-03-29T16:30:47Z</time>
      </trkpt>
      <trkpt lat="46.99194" lon="5.40691">
        <ele>192.401123</ele>
        <time>2011-03-29T16:31:09Z</time>
      </trkpt>
      <trkpt lat="46.99339" lon="5.40662">
        <ele>192.401123</ele>
        <time>2011-03-29T16:31:27Z</time>
      </trkpt>
      <trkpt lat="46.99438" lon="5.40629">
        <ele>193.362305</ele>
        <time>2011-03-29T16:31:40Z</time>
      </trkpt>
      <trkpt lat="46.9955" lon="5.40561">
        <ele>193.362305</ele>
        <time>2011-03-29T16:31:58Z</time>
      </trkpt>
      <trkpt lat="46.99647" lon="5.40464">
        <ele>192.881714</ele>
        <time>2011-03-29T16:32:15Z</time>
      </trkpt>
      <trkpt lat="46.99746" lon="5.40325">
        <ele>192.401123</ele>
        <time>2011-03-29T16:32:35Z</time>
      </trkpt>
      <trkpt lat="46.99831" lon="5.40291">
        <ele>192.401123</ele>
        <time>2011-03-29T16:32:48Z</time>
      </trkpt>
      <trkpt lat="46.99902" lon="5.40234">
        <ele>192.881714</ele>
        <time>2011-03-29T16:32:59Z</time>
      </trkpt>
      <trkpt lat="47" lon="5.40162">
        <ele>192.881714</ele>
        <time>2011-03-29T16:33:14Z</time>
      </trkpt>
      <trkpt lat="47.00013" lon="5.40156">
        <ele>192.881714</ele>
        <time>2011-03-29T16:33:16Z</time>
      </trkpt>
      <trkpt lat="47.00046" lon="5.40094">
        <ele>193.362305</ele>
        <time>2011-03-29T16:33:24Z</time>
      </trkpt>
      <trkpt lat="47.00049" lon="5.40064">
        <ele>193.362305</ele>
        <time>2011-03-29T16:33:27Z</time>
      </trkpt>
      <trkpt lat="47.00045" lon="5.40024">
        <ele>194.32373</ele>
        <time>2011-03-29T16:33:31Z</time>
      </trkpt>
      <trkpt lat="46.99986" lon="5.39888">
        <ele>193.362305</ele>
        <time>2011-03-29T16:33:47Z</time>
      </trkpt>
      <trkpt lat="46.99952" lon="5.39813">
        <ele>193.843018</ele>
        <time>2011-03-29T16:33:55Z</time>
      </trkpt>
      <trkpt lat="46.99947" lon="5.39768">
        <ele>193.362305</ele>
        <time>2011-03-29T16:33:59Z</time>
      </trkpt>
      <trkpt lat="46.99963" lon="5.3958">
        <ele>192.401123</ele>
        <time>2011-03-29T16:34:16Z</time>
      </trkpt>
      <trkpt lat="46.99976" lon="5.39383">
        <ele>193.362305</ele>
        <time>2011-03-29T16:34:33Z</time>
      </trkpt>
      <trkpt lat="47.00003" lon="5.39202">
        <ele>192.401123</ele>
        <time>2011-03-29T16:34:49Z</time>
      </trkpt>
      <trkpt lat="47.00024" lon="5.39153">
        <ele>192.881714</ele>
        <time>2011-03-29T16:34:54Z</time>
      </trkpt>
      <trkpt lat="47.00043" lon="5.39025">
        <ele>191.920288</ele>
        <time>2011-03-29T16:35:06Z</time>
      </trkpt>
      <trkpt lat="47.0008" lon="5.38968">
        <ele>193.362305</ele>
        <time>2011-03-29T16:35:14Z</time>
      </trkpt>
      <trkpt lat="47.00092" lon="5.38966">
        <ele>193.843018</ele>
        <time>2011-03-29T16:35:16Z</time>
      </trkpt>
      <trkpt lat="47.00108" lon="5.38967">
        <ele>193.843018</ele>
        <time>2011-03-29T16:35:19Z</time>
      </trkpt>
      <trkpt lat="47.00179" lon="5.38987">
        <ele>193.362305</ele>
        <time>2011-03-29T16:35:35Z</time>
      </trkpt>
      <trkpt lat="47.00197" lon="5.38994">
        <ele>194.32373</ele>
        <time>2011-03-29T16:35:39Z</time>
      </trkpt>
      <trkpt lat="47.00295" lon="5.39026">
        <ele>194.32373</ele>
        <time>2011-03-29T16:35:57Z</time>
      </trkpt>
      <trkpt lat="47.00429" lon="5.39071">
        <ele>192.881714</ele>
        <time>2011-03-29T16:36:18Z</time>
      </trkpt>
      <trkpt lat="47.00552" lon="5.39102">
        <ele>191.920288</ele>
        <time>2011-03-29T16:36:36Z</time>
      </trkpt>
      <trkpt lat="47.00628" lon="5.39046">
        <ele>192.881714</ele>
        <time>2011-03-29T16:36:49Z</time>
      </trkpt>
      <trkpt lat="47.0076" lon="5.38908">
        <ele>191.920288</ele>
        <time>2011-03-29T16:37:13Z</time>
      </trkpt>
      <trkpt lat="47.00805" lon="5.38796">
        <ele>191.920288</ele>
        <time>2011-03-29T16:37:28Z</time>
      </trkpt>
      <trkpt lat="47.00843" lon="5.38684">
        <ele>191.439575</ele>
        <time>2011-03-29T16:37:42Z</time>
      </trkpt>
      <trkpt lat="47.00903" lon="5.38621">
        <ele>191.439575</ele>
        <time>2011-03-29T16:37:54Z</time>
      </trkpt>
      <trkpt lat="47.00938" lon="5.38621">
        <ele>191.439575</ele>
        <time>2011-03-29T16:38:05Z</time>
      </trkpt>
      <trkpt lat="47.00935" lon="5.38686">
        <ele>191.920288</ele>
        <time>2011-03-29T16:38:21Z</time>
      </trkpt>
      <trkpt lat="47.00924" lon="5.38775">
        <ele>191.439575</ele>
        <time>2011-03-29T16:38:37Z</time>
      </trkpt>
      <trkpt lat="47.00923" lon="5.38788">
        <ele>191.920288</ele>
        <time>2011-03-29T16:38:39Z</time>
      </trkpt>
      <trkpt lat="47.00924" lon="5.3882">
        <ele>191.439575</ele>
        <time>2011-03-29T16:38:44Z</time>
      </trkpt>
      <trkpt lat="47.00951" lon="5.38838">
        <ele>190.958984</ele>
        <time>2011-03-29T16:38:52Z</time>
      </trkpt>
      <trkpt lat="47.00955" lon="5.38836">
        <ele>190.958984</ele>
        <time>2011-03-29T16:38:53Z</time>
      </trkpt>
      <trkpt lat="47.00981" lon="5.38828">
        <ele>190.958984</ele>
        <time>2011-03-29T16:38:59Z</time>
      </trkpt>
      <trkpt lat="47.00999" lon="5.3883">
        <ele>190.958984</ele>
        <time>2011-03-29T16:39:03Z</time>
      </trkpt>
      <trkpt lat="47.0106" lon="5.38882">
        <ele>190.478394</ele>
        <time>2011-03-29T16:39:18Z</time>
      </trkpt>
      <trkpt lat="47.01131" lon="5.38908">
        <ele>191.920288</ele>
        <time>2011-03-29T16:39:34Z</time>
      </trkpt>
      <trkpt lat="47.01226" lon="5.38948">
        <ele>192.401123</ele>
        <time>2011-03-29T16:39:54Z</time>
      </trkpt>
      <trkpt lat="47.01324" lon="5.39023">
        <ele>192.401123</ele>
        <time>2011-03-29T16:40:14Z</time>
      </trkpt>
      <trkpt lat="47.01465" lon="5.39131">
        <ele>192.401123</ele>
        <time>2011-03-29T16:40:40Z</time>
      </trkpt>
      <trkpt lat="47.01614" lon="5.39252">
        <ele>191.920288</ele>
        <time>2011-03-29T16:41:08Z</time>
      </trkpt>
      <trkpt lat="47.01722" lon="5.39359">
        <ele>191.920288</ele>
        <time>2011-03-29T16:41:29Z</time>
      </trkpt>
      <trkpt lat="47.01895" lon="5.39507">
        <ele>191.920288</ele>
        <time>2011-03-29T16:41:59Z</time>
      </trkpt>
      <trkpt lat="47.02025" lon="5.39636">
        <ele>192.401123</ele>
        <time>2011-03-29T16:42:23Z</time>
      </trkpt>
      <trkpt lat="47.02159" lon="5.39785">
        <ele>193.843018</ele>
        <time>2011-03-29T16:42:45Z</time>
      </trkpt>
      <trkpt lat="47.02277" lon="5.39901">
        <ele>193.843018</ele>
        <time>2011-03-29T16:43:03Z</time>
      </trkpt>
      <trkpt lat="47.024" lon="5.4002">
        <ele>194.32373</ele>
        <time>2011-03-29T16:43:22Z</time>
      </trkpt>
      <trkpt lat="47.02565" lon="5.40174">
        <ele>193.843018</ele>
        <time>2011-03-29T16:43:46Z</time>
      </trkpt>
      <trkpt lat="47.02743" lon="5.40316">
        <ele>192.881714</ele>
        <time>2011-03-29T16:44:09Z</time>
      </trkpt>
      <trkpt lat="47.02916" lon="5.40431">
        <ele>192.401123</ele>
        <time>2011-03-29T16:44:30Z</time>
      </trkpt>
      <trkpt lat="47.03064" lon="5.40535">
        <ele>193.843018</ele>
        <time>2011-03-29T16:44:47Z</time>
      </trkpt>
      <trkpt lat="47.03116" lon="5.40633">
        <ele>193.843018</ele>
        <time>2011-03-29T16:44:56Z</time>
      </trkpt>
      <trkpt lat="47.03112" lon="5.40702">
        <ele>193.843018</ele>
        <time>2011-03-29T16:45:02Z</time>
      </trkpt>
      <trkpt lat="47.03093" lon="5.40722">
        <ele>194.32373</ele>
        <time>2011-03-29T16:45:05Z</time>
      </trkpt>
      <trkpt lat="47.03057" lon="5.40746">
        <ele>194.32373</ele>
        <time>2011-03-29T16:45:11Z</time>
      </trkpt>
      <trkpt lat="47.03049" lon="5.40788">
        <ele>194.804321</ele>
        <time>2011-03-29T16:45:19Z</time>
      </trkpt>
      <trkpt lat="47.03054" lon="5.40795">
        <ele>194.32373</ele>
        <time>2011-03-29T16:45:22Z</time>
      </trkpt>
      <trkpt lat="47.03059" lon="5.40801">
        <ele>195.765625</ele>
        <time>2011-03-29T16:45:25Z</time>
      </trkpt>
      <trkpt lat="47.0309" lon="5.4076">
        <ele>197.20752</ele>
        <time>2011-03-29T16:45:39Z</time>
      </trkpt>
      <trkpt lat="47.03121" lon="5.40731">
        <ele>198.168945</ele>
        <time>2011-03-29T16:45:49Z</time>
      </trkpt>
      <trkpt lat="47.03186" lon="5.40711">
        <ele>199.61084</ele>
        <time>2011-03-29T16:46:07Z</time>
      </trkpt>
      <trkpt lat="47.03203" lon="5.4071">
        <ele>199.130127</ele>
        <time>2011-03-29T16:46:11Z</time>
      </trkpt>
      <trkpt lat="47.03217" lon="5.40713">
        <ele>198.649536</ele>
        <time>2011-03-29T16:46:14Z</time>
      </trkpt>
      <trkpt lat="47.03232" lon="5.40722">
        <ele>198.649536</ele>
        <time>2011-03-29T16:46:17Z</time>
      </trkpt>
      <trkpt lat="47.03291" lon="5.40803">
        <ele>195.765625</ele>
        <time>2011-03-29T16:46:29Z</time>
      </trkpt>
      <trkpt lat="47.03311" lon="5.40817">
        <ele>194.804321</ele>
        <time>2011-03-29T16:46:32Z</time>
      </trkpt>
      <trkpt lat="47.03318" lon="5.40818">
        <ele>194.32373</ele>
        <time>2011-03-29T16:46:33Z</time>
      </trkpt>
      <trkpt lat="47.03332" lon="5.40819">
        <ele>194.32373</ele>
        <time>2011-03-29T16:46:35Z</time>
      </trkpt>
      <trkpt lat="47.0335" lon="5.4079">
        <ele>194.32373</ele>
        <time>2011-03-29T16:46:40Z</time>
      </trkpt>
      <trkpt lat="47.03327" lon="5.40782">
        <ele>193.843018</ele>
        <time>2011-03-29T16:46:45Z</time>
      </trkpt>
      <trkpt lat="47.03334" lon="5.40817">
        <ele>193.843018</ele>
        <time>2011-03-29T16:46:51Z</time>
      </trkpt>
      <trkpt lat="47.03345" lon="5.40817">
        <ele>193.843018</ele>
        <time>2011-03-29T16:46:53Z</time>
      </trkpt>
      <trkpt lat="47.03355" lon="5.40812">
        <ele>193.843018</ele>
        <time>2011-03-29T16:46:55Z</time>
      </trkpt>
      <trkpt lat="47.03403" lon="5.40845">
        <ele>192.881714</ele>
        <time>2011-03-29T16:47:04Z</time>
      </trkpt>
      <trkpt lat="47.03482" lon="5.40965">
        <ele>193.362305</ele>
        <time>2011-03-29T16:47:21Z</time>
      </trkpt>
      <trkpt lat="47.03521" lon="5.41007">
        <ele>192.401123</ele>
        <time>2011-03-29T16:47:29Z</time>
      </trkpt>
      <trkpt lat="47.03536" lon="5.41016">
        <ele>192.401123</ele>
        <time>2011-03-29T16:47:33Z</time>
      </trkpt>
      <trkpt lat="47.03563" lon="5.41047">
        <ele>192.881714</ele>
        <time>2011-03-29T16:47:42Z</time>
      </trkpt>
      <trkpt lat="47.03592" lon="5.41114">
        <ele>192.881714</ele>
        <time>2011-03-29T16:47:54Z</time>
      </trkpt>
      <trkpt lat="47.03612" lon="5.41152">
        <ele>192.881714</ele>
        <time>2011-03-29T16:48:01Z</time>
      </trkpt>
      <trkpt lat="47.03712" lon="5.41284">
        <ele>192.881714</ele>
        <time>2011-03-29T16:48:23Z</time>
      </trkpt>
      <trkpt lat="47.03725" lon="5.41302">
        <ele>192.401123</ele>
        <time>2011-03-29T16:48:26Z</time>
      </trkpt>
      <trkpt lat="47.03745" lon="5.41318">
        <ele>192.881714</ele>
        <time>2011-03-29T16:48:30Z</time>
      </trkpt>
      <trkpt lat="47.03808" lon="5.41331">
        <ele>193.843018</ele>
        <time>2011-03-29T16:48:42Z</time>
      </trkpt>
      <trkpt lat="47.03846" lon="5.41315">
        <ele>192.881714</ele>
        <time>2011-03-29T16:48:54Z</time>
      </trkpt>
      <trkpt lat="47.0386" lon="5.41309">
        <ele>192.881714</ele>
        <time>2011-03-29T16:49:09Z</time>
      </trkpt>
      <trkpt lat="47.0386" lon="5.41309">
        <ele>192.401123</ele>
        <time>2011-03-29T16:49:10Z</time>
      </trkpt>
      <trkpt lat="47.03868" lon="5.41314">
        <ele>193.362305</ele>
        <time>2011-03-29T16:49:15Z</time>
      </trkpt>
      <trkpt lat="47.03904" lon="5.41348">
        <ele>193.362305</ele>
        <time>2011-03-29T16:49:30Z</time>
      </trkpt>
      <trkpt lat="47.03912" lon="5.41348">
        <ele>192.881714</ele>
        <time>2011-03-29T16:49:32Z</time>
      </trkpt>
      <trkpt lat="47.03969" lon="5.4139">
        <ele>192.881714</ele>
        <time>2011-03-29T16:49:46Z</time>
      </trkpt>
      <trkpt lat="47.04022" lon="5.41434">
        <ele>192.401123</ele>
        <time>2011-03-29T16:50:02Z</time>
      </trkpt>
      <trkpt lat="47.04092" lon="5.4145">
        <ele>192.401123</ele>
        <time>2011-03-29T16:50:19Z</time>
      </trkpt>
      <trkpt lat="47.04108" lon="5.41453">
        <ele>192.881714</ele>
        <time>2011-03-29T16:50:23Z</time>
      </trkpt>
      <trkpt lat="47.04121" lon="5.4145">
        <ele>193.362305</ele>
        <time>2011-03-29T16:50:26Z</time>
      </trkpt>
      <trkpt lat="47.04211" lon="5.41459">
        <ele>192.881714</ele>
        <time>2011-03-29T16:50:46Z</time>
      </trkpt>
      <trkpt lat="47.04261" lon="5.41463">
        <ele>193.362305</ele>
        <time>2011-03-29T16:50:58Z</time>
      </trkpt>
      <trkpt lat="47.04342" lon="5.41489">
        <ele>193.362305</ele>
        <time>2011-03-29T16:51:14Z</time>
      </trkpt>
      <trkpt lat="47.04432" lon="5.41552">
        <ele>192.881714</ele>
        <time>2011-03-29T16:51:31Z</time>
      </trkpt>
      <trkpt lat="47.04539" lon="5.41625">
        <ele>193.362305</ele>
        <time>2011-03-29T16:51:51Z</time>
      </trkpt>
      <trkpt lat="47.04558" lon="5.4165">
        <ele>193.843018</ele>
        <time>2011-03-29T16:51:55Z</time>
      </trkpt>
      <trkpt lat="47.04591" lon="5.41709">
        <ele>193.843018</ele>
        <time>2011-03-29T16:52:03Z</time>
      </trkpt>
      <trkpt lat="47.04669" lon="5.41823">
        <ele>193.843018</ele>
        <time>2011-03-29T16:52:21Z</time>
      </trkpt>
      <trkpt lat="47.04709" lon="5.41859">
        <ele>193.843018</ele>
        <time>2011-03-29T16:52:33Z</time>
      </trkpt>
      <trkpt lat="47.04711" lon="5.41859">
        <ele>193.843018</ele>
        <time>2011-03-29T16:52:37Z</time>
      </trkpt>
      <trkpt lat="47.04722" lon="5.41843">
        <ele>193.843018</ele>
        <time>2011-03-29T16:52:43Z</time>
      </trkpt>
      <trkpt lat="47.04759" lon="5.41713">
        <ele>193.843018</ele>
        <time>2011-03-29T16:53:02Z</time>
      </trkpt>
      <trkpt lat="47.04813" lon="5.41557">
        <ele>193.843018</ele>
        <time>2011-03-29T16:53:24Z</time>
      </trkpt>
      <trkpt lat="47.04854" lon="5.41432">
        <ele>193.362305</ele>
        <time>2011-03-29T16:53:43Z</time>
      </trkpt>
      <trkpt lat="47.0486" lon="5.41414">
        <ele>193.362305</ele>
        <time>2011-03-29T16:53:48Z</time>
      </trkpt>
      <trkpt lat="47.04874" lon="5.41398">
        <ele>193.362305</ele>
        <time>2011-03-29T16:53:52Z</time>
      </trkpt>
      <trkpt lat="47.04893" lon="5.41391">
        <ele>194.32373</ele>
        <time>2011-03-29T16:53:56Z</time>
      </trkpt>
      <trkpt lat="47.04996" lon="5.41391">
        <ele>193.843018</ele>
        <time>2011-03-29T16:54:13Z</time>
      </trkpt>
      <trkpt lat="47.05165" lon="5.41392">
        <ele>193.843018</ele>
        <time>2011-03-29T16:54:39Z</time>
      </trkpt>
      <trkpt lat="47.05203" lon="5.41391">
        <ele>193.843018</ele>
        <time>2011-03-29T16:54:45Z</time>
      </trkpt>
      <trkpt lat="47.05215" lon="5.41392">
        <ele>193.843018</ele>
        <time>2011-03-29T16:54:47Z</time>
      </trkpt>
      <trkpt lat="47.05235" lon="5.41406">
        <ele>194.32373</ele>
        <time>2011-03-29T16:54:51Z</time>
      </trkpt>
      <trkpt lat="47.05263" lon="5.41399">
        <ele>193.843018</ele>
        <time>2011-03-29T16:54:56Z</time>
      </trkpt>
      <trkpt lat="47.05368" lon="5.4139">
        <ele>194.32373</ele>
        <time>2011-03-29T16:55:11Z</time>
      </trkpt>
      <trkpt lat="47.05525" lon="5.41391">
        <ele>193.843018</ele>
        <time>2011-03-29T16:55:33Z</time>
      </trkpt>
      <trkpt lat="47.05612" lon="5.41393">
        <ele>194.32373</ele>
        <time>2011-03-29T16:55:45Z</time>
      </trkpt>
      <trkpt lat="47.05643" lon="5.41405">
        <ele>194.32373</ele>
        <time>2011-03-29T16:55:50Z</time>
      </trkpt>
      <trkpt lat="47.05676" lon="5.41404">
        <ele>194.804321</ele>
        <time>2011-03-29T16:55:55Z</time>
      </trkpt>
      <trkpt lat="47.05696" lon="5.41395">
        <ele>194.32373</ele>
        <time>2011-03-29T16:55:58Z</time>
      </trkpt>
      <trkpt lat="47.05752" lon="5.41389">
        <ele>194.32373</ele>
        <time>2011-03-29T16:56:06Z</time>
      </trkpt>
      <trkpt lat="47.05787" lon="5.41358">
        <ele>194.804321</ele>
        <time>2011-03-29T16:56:12Z</time>
      </trkpt>
      <trkpt lat="47.05823" lon="5.41296">
        <ele>194.804321</ele>
        <time>2011-03-29T16:56:20Z</time>
      </trkpt>
      <trkpt lat="47.05865" lon="5.41269">
        <ele>194.804321</ele>
        <time>2011-03-29T16:56:27Z</time>
      </trkpt>
      <trkpt lat="47.05897" lon="5.41268">
        <ele>196.246338</ele>
        <time>2011-03-29T16:56:32Z</time>
      </trkpt>
      <trkpt lat="47.05938" lon="5.41271">
        <ele>197.688232</ele>
        <time>2011-03-29T16:56:41Z</time>
      </trkpt>
      <trkpt lat="47.05942" lon="5.4128">
        <ele>197.688232</ele>
        <time>2011-03-29T16:56:52Z</time>
      </trkpt>
      <trkpt lat="47.05941" lon="5.41282">
        <ele>197.20752</ele>
        <time>2011-03-29T16:58:10Z</time>
      </trkpt>
      <trkpt lat="47.05942" lon="5.41287">
        <ele>197.20752</ele>
        <time>2011-03-29T16:58:52Z</time>
      </trkpt>
      <trkpt lat="47.05939" lon="5.41325">
        <ele>196.726929</ele>
        <time>2011-03-29T17:00:37Z</time>
      </trkpt>
      <trkpt lat="47.05945" lon="5.41432">
        <ele>196.726929</ele>
        <time>2011-03-29T17:00:53Z</time>
      </trkpt>
      <trkpt lat="47.05946" lon="5.4157">
        <ele>196.246338</ele>
        <time>2011-03-29T17:01:13Z</time>
      </trkpt>
      <trkpt lat="47.05947" lon="5.41594">
        <ele>196.726929</ele>
        <time>2011-03-29T17:01:16Z</time>
      </trkpt>
      <trkpt lat="47.05947" lon="5.41805">
        <ele>196.726929</ele>
        <time>2011-03-29T17:01:40Z</time>
      </trkpt>
      <trkpt lat="47.05946" lon="5.41974">
        <ele>196.726929</ele>
        <time>2011-03-29T17:01:59Z</time>
      </trkpt>
      <trkpt lat="47.05946" lon="5.42164">
        <ele>196.726929</ele>
        <time>2011-03-29T17:02:20Z</time>
      </trkpt>
      <trkpt lat="47.05947" lon="5.42359">
        <ele>197.688232</ele>
        <time>2011-03-29T17:02:41Z</time>
      </trkpt>
      <trkpt lat="47.05946" lon="5.42482">
        <ele>196.726929</ele>
        <time>2011-03-29T17:02:56Z</time>
      </trkpt>
      <trkpt lat="47.05945" lon="5.42653">
        <ele>197.688232</ele>
        <time>2011-03-29T17:03:18Z</time>
      </trkpt>
      <trkpt lat="47.05945" lon="5.42668">
        <ele>199.130127</ele>
        <time>2011-03-29T17:03:22Z</time>
      </trkpt>
      <trkpt lat="47.05945" lon="5.42675">
        <ele>199.61084</ele>
        <time>2011-03-29T17:03:24Z</time>
      </trkpt>
      <trkpt lat="47.05953" lon="5.42683">
        <ele>200.091675</ele>
        <time>2011-03-29T17:03:28Z</time>
      </trkpt>
      <trkpt lat="47.05971" lon="5.4268">
        <ele>199.61084</ele>
        <time>2011-03-29T17:03:36Z</time>
      </trkpt>
      <trkpt lat="47.05972" lon="5.42727">
        <ele>198.168945</ele>
        <time>2011-03-29T17:03:43Z</time>
      </trkpt>
      <trkpt lat="47.05971" lon="5.42903">
        <ele>197.20752</ele>
        <time>2011-03-29T17:04:01Z</time>
      </trkpt>
      <trkpt lat="47.0597" lon="5.42912">
        <ele>197.20752</ele>
        <time>2011-03-29T17:04:02Z</time>
      </trkpt>
      <trkpt lat="47.05963" lon="5.42948">
        <ele>195.765625</ele>
        <time>2011-03-29T17:04:10Z</time>
      </trkpt>
      <trkpt lat="47.0597" lon="5.42997">
        <ele>196.246338</ele>
        <time>2011-03-29T17:04:21Z</time>
      </trkpt>
      <trkpt lat="47.05973" lon="5.43096">
        <ele>196.246338</ele>
        <time>2011-03-29T17:04:35Z</time>
      </trkpt>
      <trkpt lat="47.05976" lon="5.43281">
        <ele>196.246338</ele>
        <time>2011-03-29T17:04:57Z</time>
      </trkpt>
      <trkpt lat="47.05976" lon="5.43458">
        <ele>196.726929</ele>
        <time>2011-03-29T17:05:20Z</time>
      </trkpt>
      <trkpt lat="47.05976" lon="5.4364">
        <ele>197.688232</ele>
        <time>2011-03-29T17:05:42Z</time>
      </trkpt>
      <trkpt lat="47.05981" lon="5.43748">
        <ele>197.688232</ele>
        <time>2011-03-29T17:05:56Z</time>
      </trkpt>
      <trkpt lat="47.05976" lon="5.4378">
        <ele>197.688232</ele>
        <time>2011-03-29T17:06:00Z</time>
      </trkpt>
      <trkpt lat="47.05963" lon="5.43818">
        <ele>197.20752</ele>
        <time>2011-03-29T17:06:05Z</time>
      </trkpt>
      <trkpt lat="47.05896" lon="5.43913">
        <ele>197.20752</ele>
        <time>2011-03-29T17:06:21Z</time>
      </trkpt>
      <trkpt lat="47.05808" lon="5.44033">
        <ele>197.20752</ele>
        <time>2011-03-29T17:06:42Z</time>
      </trkpt>
      <trkpt lat="47.05698" lon="5.44172">
        <ele>197.20752</ele>
        <time>2011-03-29T17:07:07Z</time>
      </trkpt>
      <trkpt lat="47.05674" lon="5.442">
        <ele>197.688232</ele>
        <time>2011-03-29T17:07:13Z</time>
      </trkpt>
      <trkpt lat="47.05661" lon="5.44205">
        <ele>197.688232</ele>
        <time>2011-03-29T17:07:16Z</time>
      </trkpt>
      <trkpt lat="47.05648" lon="5.44217">
        <ele>197.20752</ele>
        <time>2011-03-29T17:07:19Z</time>
      </trkpt>
      <trkpt lat="47.05631" lon="5.44257">
        <ele>198.649536</ele>
        <time>2011-03-29T17:07:25Z</time>
      </trkpt>
      <trkpt lat="47.05615" lon="5.44276">
        <ele>199.61084</ele>
        <time>2011-03-29T17:07:30Z</time>
      </trkpt>
      <trkpt lat="47.05607" lon="5.44283">
        <ele>199.130127</ele>
        <time>2011-03-29T17:07:32Z</time>
      </trkpt>
      <trkpt lat="47.05567" lon="5.4434">
        <ele>199.130127</ele>
        <time>2011-03-29T17:07:43Z</time>
      </trkpt>
      <trkpt lat="47.05553" lon="5.44423">
        <ele>198.649536</ele>
        <time>2011-03-29T17:07:54Z</time>
      </trkpt>
      <trkpt lat="47.05555" lon="5.4443">
        <ele>198.649536</ele>
        <time>2011-03-29T17:07:55Z</time>
      </trkpt>
      <trkpt lat="47.05608" lon="5.44597">
        <ele>199.61084</ele>
        <time>2011-03-29T17:08:16Z</time>
      </trkpt>
      <trkpt lat="47.05668" lon="5.44793">
        <ele>199.61084</ele>
        <time>2011-03-29T17:08:39Z</time>
      </trkpt>
      <trkpt lat="47.05752" lon="5.45062">
        <ele>200.091675</ele>
        <time>2011-03-29T17:09:09Z</time>
      </trkpt>
      <trkpt lat="47.05833" lon="5.45319">
        <ele>200.091675</ele>
        <time>2011-03-29T17:09:38Z</time>
      </trkpt>
      <trkpt lat="47.05898" lon="5.45522">
        <ele>200.572266</ele>
        <time>2011-03-29T17:10:01Z</time>
      </trkpt>
      <trkpt lat="47.0596" lon="5.4572">
        <ele>199.61084</ele>
        <time>2011-03-29T17:10:24Z</time>
      </trkpt>
      <trkpt lat="47.06021" lon="5.45916">
        <ele>198.649536</ele>
        <time>2011-03-29T17:10:46Z</time>
      </trkpt>
      <trkpt lat="47.06063" lon="5.4605">
        <ele>199.130127</ele>
        <time>2011-03-29T17:11:01Z</time>
      </trkpt>
      <trkpt lat="47.06087" lon="5.46086">
        <ele>198.649536</ele>
        <time>2011-03-29T17:11:10Z</time>
      </trkpt>
      <trkpt lat="47.06088" lon="5.46087">
        <ele>198.649536</ele>
        <time>2011-03-29T17:11:24Z</time>
      </trkpt>
      <trkpt lat="47.06089" lon="5.46093">
        <ele>198.649536</ele>
        <time>2011-03-29T17:11:36Z</time>
      </trkpt>
      <trkpt lat="47.06113" lon="5.46114">
        <ele>198.649536</ele>
        <time>2011-03-29T17:11:47Z</time>
      </trkpt>
      <trkpt lat="47.06161" lon="5.46144">
        <ele>198.649536</ele>
        <time>2011-03-29T17:12:00Z</time>
      </trkpt>
      <trkpt lat="47.06223" lon="5.46186">
        <ele>198.649536</ele>
        <time>2011-03-29T17:12:17Z</time>
      </trkpt>
      <trkpt lat="47.06298" lon="5.46237">
        <ele>199.130127</ele>
        <time>2011-03-29T17:12:35Z</time>
      </trkpt>
      <trkpt lat="47.06387" lon="5.46315">
        <ele>199.130127</ele>
        <time>2011-03-29T17:12:55Z</time>
      </trkpt>
      <trkpt lat="47.06501" lon="5.46402">
        <ele>199.130127</ele>
        <time>2011-03-29T17:13:16Z</time>
      </trkpt>
      <trkpt lat="47.06647" lon="5.4652">
        <ele>199.130127</ele>
        <time>2011-03-29T17:13:41Z</time>
      </trkpt>
      <trkpt lat="47.06773" lon="5.46618">
        <ele>199.61084</ele>
        <time>2011-03-29T17:14:02Z</time>
      </trkpt>
      <trkpt lat="47.0685" lon="5.46666">
        <ele>200.091675</ele>
        <time>2011-03-29T17:14:15Z</time>
      </trkpt>
      <trkpt lat="47.06979" lon="5.46767">
        <ele>200.091675</ele>
        <time>2011-03-29T17:14:37Z</time>
      </trkpt>
      <trkpt lat="47.07139" lon="5.46895">
        <ele>200.091675</ele>
        <time>2011-03-29T17:15:03Z</time>
      </trkpt>
      <trkpt lat="47.07247" lon="5.4698">
        <ele>202.014282</ele>
        <time>2011-03-29T17:15:21Z</time>
      </trkpt>
      <trkpt lat="47.07279" lon="5.47007">
        <ele>202.975464</ele>
        <time>2011-03-29T17:15:30Z</time>
      </trkpt>
      <trkpt lat="47.07291" lon="5.47024">
        <ele>201.533569</ele>
        <time>2011-03-29T17:15:33Z</time>
      </trkpt>
      <trkpt lat="47.07296" lon="5.47031">
        <ele>201.052856</ele>
        <time>2011-03-29T17:15:34Z</time>
      </trkpt>
      <trkpt lat="47.0739" lon="5.47113">
        <ele>199.61084</ele>
        <time>2011-03-29T17:15:48Z</time>
      </trkpt>
      <trkpt lat="47.07511" lon="5.47205">
        <ele>200.091675</ele>
        <time>2011-03-29T17:16:05Z</time>
      </trkpt>
      <trkpt lat="47.07601" lon="5.47281">
        <ele>200.091675</ele>
        <time>2011-03-29T17:16:19Z</time>
      </trkpt>
      <trkpt lat="47.07654" lon="5.47365">
        <ele>200.091675</ele>
        <time>2011-03-29T17:16:31Z</time>
      </trkpt>
      <trkpt lat="47.07754" lon="5.47514">
        <ele>200.572266</ele>
        <time>2011-03-29T17:16:52Z</time>
      </trkpt>
      <trkpt lat="47.07865" lon="5.47688">
        <ele>200.572266</ele>
        <time>2011-03-29T17:17:16Z</time>
      </trkpt>
      <trkpt lat="47.07929" lon="5.47787">
        <ele>201.052856</ele>
        <time>2011-03-29T17:17:31Z</time>
      </trkpt>
      <trkpt lat="47.07995" lon="5.4789">
        <ele>202.014282</ele>
        <time>2011-03-29T17:17:45Z</time>
      </trkpt>
      <trkpt lat="47.08042" lon="5.47969">
        <ele>202.494873</ele>
        <time>2011-03-29T17:17:57Z</time>
      </trkpt>
      <trkpt lat="47.08135" lon="5.48061">
        <ele>202.014282</ele>
        <time>2011-03-29T17:18:15Z</time>
      </trkpt>
      <trkpt lat="47.08214" lon="5.48161">
        <ele>202.494873</ele>
        <time>2011-03-29T17:18:31Z</time>
      </trkpt>
      <trkpt lat="47.08288" lon="5.48285">
        <ele>202.014282</ele>
        <time>2011-03-29T17:18:48Z</time>
      </trkpt>
      <trkpt lat="47.08293" lon="5.48291">
        <ele>202.494873</ele>
        <time>2011-03-29T17:18:49Z</time>
      </trkpt>
      <trkpt lat="47.08385" lon="5.48402">
        <ele>202.975464</ele>
        <time>2011-03-29T17:19:07Z</time>
      </trkpt>
      <trkpt lat="47.08471" lon="5.48546">
        <ele>203.456177</ele>
        <time>2011-03-29T17:19:28Z</time>
      </trkpt>
      <trkpt lat="47.0852" lon="5.48624">
        <ele>203.456177</ele>
        <time>2011-03-29T17:19:44Z</time>
      </trkpt>
      <trkpt lat="47.08559" lon="5.48683">
        <ele>202.494873</ele>
        <time>2011-03-29T17:19:57Z</time>
      </trkpt>
      <trkpt lat="47.08622" lon="5.48818">
        <ele>202.975464</ele>
        <time>2011-03-29T17:20:13Z</time>
      </trkpt>
      <trkpt lat="47.08706" lon="5.49009">
        <ele>202.494873</ele>
        <time>2011-03-29T17:20:34Z</time>
      </trkpt>
      <trkpt lat="47.08742" lon="5.49098">
        <ele>202.494873</ele>
        <time>2011-03-29T17:20:48Z</time>
      </trkpt>
      <trkpt lat="47.0877" lon="5.49135">
        <ele>202.494873</ele>
        <time>2011-03-29T17:21:03Z</time>
      </trkpt>
      <trkpt lat="47.08785" lon="5.4915">
        <ele>202.975464</ele>
        <time>2011-03-29T17:21:07Z</time>
      </trkpt>
      <trkpt lat="47.08839" lon="5.49183">
        <ele>203.93689</ele>
        <time>2011-03-29T17:21:18Z</time>
      </trkpt>
      <trkpt lat="47.08854" lon="5.492">
        <ele>203.93689</ele>
        <time>2011-03-29T17:21:22Z</time>
      </trkpt>
      <trkpt lat="47.08875" lon="5.49241">
        <ele>203.456177</ele>
        <time>2011-03-29T17:21:29Z</time>
      </trkpt>
      <trkpt lat="47.08872" lon="5.49271">
        <ele>205.378784</ele>
        <time>2011-03-29T17:21:35Z</time>
      </trkpt>
      <trkpt lat="47.08869" lon="5.49273">
        <ele>205.378784</ele>
        <time>2011-03-29T17:21:36Z</time>
      </trkpt>
      <trkpt lat="47.08867" lon="5.49295">
        <ele>204.41748</ele>
        <time>2011-03-29T17:21:41Z</time>
      </trkpt>
      <trkpt lat="47.08872" lon="5.49309">
        <ele>203.93689</ele>
        <time>2011-03-29T17:21:43Z</time>
      </trkpt>
      <trkpt lat="47.0889" lon="5.49388">
        <ele>204.898071</ele>
        <time>2011-03-29T17:21:55Z</time>
      </trkpt>
      <trkpt lat="47.08896" lon="5.49412">
        <ele>206.340088</ele>
        <time>2011-03-29T17:22:07Z</time>
      </trkpt>
      <trkpt lat="47.08896" lon="5.49416">
        <ele>207.301392</ele>
        <time>2011-03-29T17:22:15Z</time>
      </trkpt>
      <trkpt lat="47.08888" lon="5.49422">
        <ele>207.301392</ele>
        <time>2011-03-29T17:22:20Z</time>
      </trkpt>
      <trkpt lat="47.08883" lon="5.49424">
        <ele>207.301392</ele>
        <time>2011-03-29T17:22:22Z</time>
      </trkpt>
      <trkpt lat="47.08871" lon="5.49438">
        <ele>207.301392</ele>
        <time>2011-03-29T17:22:28Z</time>
      </trkpt>
      <trkpt lat="47.08794" lon="5.49491">
        <ele>209.224121</ele>
        <time>2011-03-29T17:22:45Z</time>
      </trkpt>
      <trkpt lat="47.08747" lon="5.49522">
        <ele>207.782104</ele>
        <time>2011-03-29T17:22:53Z</time>
      </trkpt>
      <trkpt lat="47.08708" lon="5.49499">
        <ele>206.820679</ele>
        <time>2011-03-29T17:23:00Z</time>
      </trkpt>
      <trkpt lat="47.08704" lon="5.4947">
        <ele>205.378784</ele>
        <time>2011-03-29T17:23:03Z</time>
      </trkpt>
      <trkpt lat="47.08705" lon="5.49449">
        <ele>204.898071</ele>
        <time>2011-03-29T17:23:05Z</time>
      </trkpt>
      <trkpt lat="47.08679" lon="5.49336">
        <ele>203.93689</ele>
        <time>2011-03-29T17:23:17Z</time>
      </trkpt>
      <trkpt lat="47.08669" lon="5.49305">
        <ele>203.93689</ele>
        <time>2011-03-29T17:23:21Z</time>
      </trkpt>
      <trkpt lat="47.08622" lon="5.49174">
        <ele>203.456177</ele>
        <time>2011-03-29T17:23:40Z</time>
      </trkpt>
      <trkpt lat="47.0855" lon="5.49089">
        <ele>203.456177</ele>
        <time>2011-03-29T17:23:57Z</time>
      </trkpt>
      <trkpt lat="47.08536" lon="5.49075">
        <ele>203.456177</ele>
        <time>2011-03-29T17:24:00Z</time>
      </trkpt>
      <trkpt lat="47.08459" lon="5.4895">
        <ele>203.456177</ele>
        <time>2011-03-29T17:24:21Z</time>
      </trkpt>
      <trkpt lat="47.0841" lon="5.48867">
        <ele>203.456177</ele>
        <time>2011-03-29T17:24:36Z</time>
      </trkpt>
      <trkpt lat="47.08403" lon="5.4884">
        <ele>203.93689</ele>
        <time>2011-03-29T17:24:40Z</time>
      </trkpt>
      <trkpt lat="47.08377" lon="5.48815">
        <ele>203.456177</ele>
        <time>2011-03-29T17:24:46Z</time>
      </trkpt>
      <trkpt lat="47.08295" lon="5.48684">
        <ele>202.975464</ele>
        <time>2011-03-29T17:25:08Z</time>
      </trkpt>
      <trkpt lat="47.08221" lon="5.48581">
        <ele>203.456177</ele>
        <time>2011-03-29T17:25:26Z</time>
      </trkpt>
      <trkpt lat="47.08125" lon="5.48504">
        <ele>202.975464</ele>
        <time>2011-03-29T17:25:46Z</time>
      </trkpt>
      <trkpt lat="47.0809" lon="5.48478">
        <ele>202.494873</ele>
        <time>2011-03-29T17:25:53Z</time>
      </trkpt>
      <trkpt lat="47.08052" lon="5.48494">
        <ele>202.494873</ele>
        <time>2011-03-29T17:26:01Z</time>
      </trkpt>
      <trkpt lat="47.08049" lon="5.48501">
        <ele>202.494873</ele>
        <time>2011-03-29T17:26:02Z</time>
      </trkpt>
      <trkpt lat="47.07991" lon="5.48675">
        <ele>203.456177</ele>
        <time>2011-03-29T17:26:25Z</time>
      </trkpt>
      <trkpt lat="47.0792" lon="5.48883">
        <ele>203.456177</ele>
        <time>2011-03-29T17:26:52Z</time>
      </trkpt>
      <trkpt lat="47.07905" lon="5.4892">
        <ele>203.93689</ele>
        <time>2011-03-29T17:26:57Z</time>
      </trkpt>
      <trkpt lat="47.07853" lon="5.48958">
        <ele>203.93689</ele>
        <time>2011-03-29T17:27:07Z</time>
      </trkpt>
      <trkpt lat="47.07841" lon="5.48955">
        <ele>203.456177</ele>
        <time>2011-03-29T17:27:09Z</time>
      </trkpt>
      <trkpt lat="47.07815" lon="5.4893">
        <ele>203.93689</ele>
        <time>2011-03-29T17:27:15Z</time>
      </trkpt>
      <trkpt lat="47.07812" lon="5.48917">
        <ele>204.41748</ele>
        <time>2011-03-29T17:27:17Z</time>
      </trkpt>
      <trkpt lat="47.07773" lon="5.4888">
        <ele>204.898071</ele>
        <time>2011-03-29T17:27:26Z</time>
      </trkpt>
      <trkpt lat="47.07747" lon="5.48919">
        <ele>204.898071</ele>
        <time>2011-03-29T17:27:32Z</time>
      </trkpt>
      <trkpt lat="47.07746" lon="5.48927">
        <ele>203.93689</ele>
        <time>2011-03-29T17:27:33Z</time>
      </trkpt>
      <trkpt lat="47.07664" lon="5.49021">
        <ele>204.898071</ele>
        <time>2011-03-29T17:27:49Z</time>
      </trkpt>
      <trkpt lat="47.07595" lon="5.49126">
        <ele>205.859497</ele>
        <time>2011-03-29T17:28:07Z</time>
      </trkpt>
      <trkpt lat="47.07496" lon="5.49316">
        <ele>207.782104</ele>
        <time>2011-03-29T17:28:37Z</time>
      </trkpt>
      <trkpt lat="47.07442" lon="5.49408">
        <ele>211.146729</ele>
        <time>2011-03-29T17:28:57Z</time>
      </trkpt>
      <trkpt lat="47.07433" lon="5.49408">
        <ele>210.666016</ele>
        <time>2011-03-29T17:29:08Z</time>
      </trkpt>
      <trkpt lat="47.07433" lon="5.49409">
        <ele>211.146729</ele>
        <time>2011-03-29T17:30:18Z</time>
      </trkpt>
      <trkpt lat="47.07426" lon="5.49417">
        <ele>212.108032</ele>
        <time>2011-03-29T17:32:39Z</time>
      </trkpt>
      <trkpt lat="47.0742" lon="5.49425">
        <ele>212.588623</ele>
        <time>2011-03-29T17:32:42Z</time>
      </trkpt>
      <trkpt lat="47.07429" lon="5.49459">
        <ele>212.588623</ele>
        <time>2011-03-29T17:32:48Z</time>
      </trkpt>
      <trkpt lat="47.07437" lon="5.49471">
        <ele>212.588623</ele>
        <time>2011-03-29T17:32:50Z</time>
      </trkpt>
      <trkpt lat="47.07433" lon="5.49498">
        <ele>213.550049</ele>
        <time>2011-03-29T17:32:55Z</time>
      </trkpt>
      <trkpt lat="47.07432" lon="5.49507">
        <ele>213.550049</ele>
        <time>2011-03-29T17:33:12Z</time>
      </trkpt>
      <trkpt lat="47.07432" lon="5.49508">
        <ele>213.550049</ele>
        <time>2011-03-29T17:33:32Z</time>
      </trkpt>
      <trkpt lat="47.07432" lon="5.49509">
        <ele>213.550049</ele>
        <time>2011-03-29T17:33:46Z</time>
      </trkpt>
      <trkpt lat="47.07432" lon="5.49508">
        <ele>213.550049</ele>
        <time>2011-03-29T17:34:20Z</time>
      </trkpt>
      <trkpt lat="47.07432" lon="5.49508">
        <ele>214.51123</ele>
        <time>2011-03-29T17:34:33Z</time>
      </trkpt>
    </trkseg>
  </trk>
</gpx>